ACA895 LIMC-CYUL
Flight info
| Callsign | ACA895 |
|---|---|
| Flight time | N/A |
| Altitude | 34000 |
| Route | AOSTA DCT ORSUD DCT MOLUS DCT UNKIR DCT DJL/N0463F380 DCT OKRIX DCT AMODO DCT COHPA DCT RESMI DCT TABOV DCT PIGOP DCT DITAL DCT LGL DCT ARGED DCT SENLO DCT JSY DCT LIZAD DCT ARKIL/N0464F400 DCT LIMRI/M081F400 DCT 52N020W 52N030W 51N040W 49N050W DCT JOOPY/N0458F400 DCT SATIP Q907 MIILS DCT KEBIG ROCKT3 |
| Aircraft | A332/H-SDE3GHIJ2J3J5M1RVWXY/LB2D1 |
Departure
| Time | 2026-05-06 12:02 |
|---|---|
| Airport | Milan Malpensa International Airport (LIMC) |
Arrival
| Time | N/A |
|---|---|
| Airport | Montreal / Pierre Elliott Trudeau International Airport (CYUL) |
| Time | Latitude | Longitude | Altitude | Speed | Heading |
|---|---|---|---|---|---|
| 2026-05-06 11:39 | 45.62076 | 8.71878 | 728 ft | 0 kts | 266° |
| 2026-05-06 11:41 | 45.62076 | 8.71892 | 729 ft | 4 kts | 245° |
| 2026-05-06 11:42 | 45.62082 | 8.71928 | 728 ft | 4 kts | 267° |
| 2026-05-06 11:42 | 45.62080 | 8.71965 | 728 ft | 4 kts | 294° |
| 2026-05-06 11:42 | 45.62065 | 8.71992 | 728 ft | 4 kts | 339° |
| 2026-05-06 11:42 | 45.62059 | 8.71996 | 728 ft | 1 kts | 348° |
| 2026-05-06 11:52 | 45.62079 | 8.71990 | 728 ft | 7 kts | 348° |
| 2026-05-06 11:52 | 45.62145 | 8.71983 | 729 ft | 11 kts | 15° |
| 2026-05-06 11:53 | 45.62183 | 8.72058 | 733 ft | 10 kts | 76° |
| 2026-05-06 11:53 | 45.62201 | 8.72155 | 731 ft | 10 kts | 76° |
| 2026-05-06 11:53 | 45.62242 | 8.72237 | 733 ft | 10 kts | 31° |
| 2026-05-06 11:53 | 45.62310 | 8.72237 | 732 ft | 10 kts | 350° |
| 2026-05-06 11:54 | 45.62386 | 8.72217 | 736 ft | 12 kts | 349° |
| 2026-05-06 11:54 | 45.62471 | 8.72192 | 735 ft | 13 kts | 348° |
| 2026-05-06 11:54 | 45.62565 | 8.72168 | 737 ft | 14 kts | 349° |
| 2026-05-06 11:54 | 45.62672 | 8.72137 | 737 ft | 17 kts | 348° |
| 2026-05-06 11:55 | 45.62804 | 8.72097 | 739 ft | 21 kts | 349° |
| 2026-05-06 11:55 | 45.62959 | 8.72054 | 742 ft | 24 kts | 349° |
| 2026-05-06 11:55 | 45.63136 | 8.72009 | 745 ft | 27 kts | 350° |
| 2026-05-06 11:55 | 45.63305 | 8.71965 | 747 ft | 23 kts | 349° |
| 2026-05-06 11:56 | 45.63458 | 8.71919 | 751 ft | 22 kts | 347° |
| 2026-05-06 11:56 | 45.63476 | 8.71913 | 753 ft | 0 kts | 347° |
| 2026-05-06 11:57 | 45.63552 | 8.71892 | 753 ft | 19 kts | 350° |
| 2026-05-06 11:57 | 45.63681 | 8.71859 | 754 ft | 18 kts | 350° |
| 2026-05-06 11:57 | 45.63803 | 8.71824 | 759 ft | 18 kts | 348° |
| 2026-05-06 11:57 | 45.63931 | 8.71788 | 762 ft | 20 kts | 349° |
| 2026-05-06 11:58 | 45.64073 | 8.71749 | 766 ft | 22 kts | 349° |
| 2026-05-06 11:58 | 45.64223 | 8.71709 | 769 ft | 22 kts | 349° |
| 2026-05-06 11:58 | 45.64368 | 8.71670 | 771 ft | 21 kts | 349° |
| 2026-05-06 11:58 | 45.64476 | 8.71726 | 773 ft | 17 kts | 71° |
| 2026-05-06 11:59 | 45.64479 | 8.71757 | 773 ft | 0 kts | 86° |
| 2026-05-06 11:59 | 45.64480 | 8.71772 | 773 ft | 4 kts | 84° |
| 2026-05-06 11:59 | 45.64483 | 8.71839 | 772 ft | 8 kts | 96° |
| 2026-05-06 12:00 | 45.64449 | 8.71894 | 772 ft | 8 kts | 153° |
| 2026-05-06 12:00 | 45.64388 | 8.71918 | 771 ft | 10 kts | 168° |
| 2026-05-06 12:00 | 45.64374 | 8.71922 | 771 ft | 0 kts | 168° |
| 2026-05-06 12:01 | 45.64369 | 8.71924 | 771 ft | 10 kts | 168° |
| 2026-05-06 12:02 | 45.64068 | 8.72009 | 766 ft | 78 kts | 169° |
| 2026-05-06 12:02 | 45.63317 | 8.72215 | 751 ft | 140 kts | 169° |
| 2026-05-06 12:02 | 45.62186 | 8.72499 | 926 ft | 181 kts | 170° |
| 2026-05-06 12:02 | 45.60883 | 8.72821 | 1503 ft | 201 kts | 168° |
| 2026-05-06 12:03 | 45.59414 | 8.73152 | 2133 ft | 227 kts | 169° |
| 2026-05-06 12:03 | 45.57768 | 8.73536 | 2789 ft | 248 kts | 169° |
| 2026-05-06 12:03 | 45.56040 | 8.73944 | 3519 ft | 254 kts | 170° |
| 2026-05-06 12:03 | 45.54279 | 8.74052 | 4349 ft | 253 kts | 187° |
| 2026-05-06 12:04 | 45.52645 | 8.73221 | 5296 ft | 250 kts | 215° |
| 2026-05-06 12:04 | 45.51633 | 8.71271 | 6266 ft | 249 kts | 254° |
| 2026-05-06 12:04 | 45.51581 | 8.69712 | 6856 ft | 249 kts | 279° |
| 2026-05-06 12:04 | 45.52459 | 8.67306 | 7893 ft | 249 kts | 304° |
| 2026-05-06 12:05 | 45.53456 | 8.65261 | 8628 ft | 253 kts | 303° |
| 2026-05-06 12:05 | 45.54467 | 8.63182 | 9387 ft | 256 kts | 302° |
| 2026-05-06 12:05 | 45.55487 | 8.61079 | 10128 ft | 259 kts | 301° |
| 2026-05-06 12:05 | 45.56515 | 8.58958 | 10883 ft | 261 kts | 301° |
| 2026-05-06 12:06 | 45.57549 | 8.56822 | 11635 ft | 262 kts | 299° |
| 2026-05-06 12:06 | 45.58585 | 8.54681 | 12362 ft | 262 kts | 298° |
| 2026-05-06 12:06 | 45.59268 | 8.53270 | 12846 ft | 261 kts | 298° |
| 2026-05-06 12:06 | 45.60301 | 8.51136 | 13563 ft | 260 kts | 298° |
| 2026-05-06 12:07 | 45.61327 | 8.49019 | 14303 ft | 257 kts | 298° |
| 2026-05-06 12:07 | 45.62340 | 8.46930 | 15011 ft | 255 kts | 298° |
| 2026-05-06 12:07 | 45.63351 | 8.44852 | 15662 ft | 254 kts | 298° |
| 2026-05-06 12:07 | 45.64360 | 8.42780 | 16284 ft | 254 kts | 297° |
| 2026-05-06 12:08 | 45.65367 | 8.40711 | 16884 ft | 253 kts | 295° |
| 2026-05-06 12:08 | 45.65952 | 8.38455 | 17438 ft | 237 kts | 268° |
| 2026-05-06 12:08 | 45.65979 | 8.36140 | 17943 ft | 235 kts | 263° |
| 2026-05-06 12:08 | 45.65976 | 8.33705 | 18096 ft | 254 kts | 264° |
| 2026-05-06 12:09 | 45.66003 | 8.31123 | 18215 ft | 273 kts | 265° |
| 2026-05-06 12:09 | 45.66085 | 8.28282 | 18219 ft | 298 kts | 267° |
| 2026-05-06 12:09 | 45.66196 | 8.25202 | 18246 ft | 321 kts | 266° |
| 2026-05-06 12:09 | 45.66190 | 8.21927 | 18392 ft | 337 kts | 262° |
| 2026-05-06 12:10 | 45.66068 | 8.18507 | 18607 ft | 352 kts | 262° |
| 2026-05-06 12:10 | 45.65938 | 8.14950 | 18874 ft | 365 kts | 262° |
| 2026-05-06 12:10 | 45.65830 | 8.11258 | 19180 ft | 378 kts | 266° |
| 2026-05-06 12:10 | 45.66069 | 8.07454 | 19622 ft | 390 kts | 274° |
| 2026-05-06 12:11 | 45.66676 | 8.03643 | 20173 ft | 397 kts | 282° |
| 2026-05-06 12:11 | 45.67642 | 7.99908 | 20766 ft | 403 kts | 287° |
| 2026-05-06 12:11 | 45.68767 | 7.96209 | 21201 ft | 410 kts | 288° |
| 2026-05-06 12:11 | 45.69884 | 7.92375 | 21217 ft | 426 kts | 287° |
| 2026-05-06 12:12 | 45.71032 | 7.88430 | 21635 ft | 429 kts | 287° |
| 2026-05-06 12:12 | 45.72174 | 7.84558 | 22717 ft | 415 kts | 287° |
| 2026-05-06 12:12 | 45.73287 | 7.80875 | 23717 ft | 403 kts | 287° |
| 2026-05-06 12:12 | 45.74317 | 7.77176 | 24316 ft | 398 kts | 283° |
| 2026-05-06 12:13 | 45.75159 | 7.73413 | 24822 ft | 397 kts | 279° |
| 2026-05-06 12:13 | 45.75742 | 7.69581 | 25212 ft | 393 kts | 272° |
| 2026-05-06 12:13 | 45.76129 | 7.65697 | 25617 ft | 395 kts | 271° |
| 2026-05-06 12:13 | 45.76496 | 7.61781 | 26051 ft | 397 kts | 271° |
| 2026-05-06 12:14 | 45.76874 | 7.57845 | 26509 ft | 400 kts | 271° |
| 2026-05-06 12:14 | 45.77260 | 7.53891 | 26911 ft | 402 kts | 271° |
| 2026-05-06 12:14 | 45.77650 | 7.49905 | 27272 ft | 405 kts | 271° |
| 2026-05-06 12:14 | 45.78042 | 7.45903 | 27664 ft | 407 kts | 271° |
| 2026-05-06 12:15 | 45.78436 | 7.41876 | 28064 ft | 409 kts | 271° |
| 2026-05-06 12:15 | 45.78841 | 7.37822 | 28422 ft | 412 kts | 271° |
| 2026-05-06 12:15 | 45.79249 | 7.33751 | 28838 ft | 414 kts | 271° |
| 2026-05-06 12:15 | 45.79661 | 7.29652 | 29190 ft | 417 kts | 271° |
| 2026-05-06 12:16 | 45.80083 | 7.25537 | 29515 ft | 418 kts | 271° |
| 2026-05-06 12:16 | 45.80508 | 7.21404 | 29743 ft | 421 kts | 271° |
| 2026-05-06 12:16 | 45.80934 | 7.17241 | 29988 ft | 423 kts | 271° |
| 2026-05-06 12:16 | 45.81360 | 7.13069 | 30288 ft | 423 kts | 271° |
| 2026-05-06 12:17 | 45.81788 | 7.08885 | 30575 ft | 425 kts | 271° |
| 2026-05-06 12:17 | 45.82470 | 7.04759 | 30836 ft | 440 kts | 284° |
| 2026-05-06 12:17 | 45.83997 | 7.00843 | 31076 ft | 461 kts | 300° |
| 2026-05-06 12:17 | 45.86316 | 6.97546 | 31381 ft | 481 kts | 315° |
| 2026-05-06 12:18 | 45.89120 | 6.94841 | 31642 ft | 489 kts | 321° |
| 2026-05-06 12:18 | 45.92025 | 6.92307 | 32036 ft | 488 kts | 322° |
| 2026-05-06 12:18 | 45.94930 | 6.89808 | 32464 ft | 486 kts | 322° |
| 2026-05-06 12:18 | 45.97827 | 6.87305 | 32817 ft | 485 kts | 322° |
| 2026-05-06 12:19 | 46.00798 | 6.84956 | 33173 ft | 491 kts | 329° |
| 2026-05-06 12:19 | 46.03989 | 6.83136 | 33531 ft | 497 kts | 337° |
| 2026-05-06 12:19 | 46.07351 | 6.81882 | 33822 ft | 502 kts | 343° |
| 2026-05-06 12:19 | 46.10806 | 6.80912 | 33910 ft | 509 kts | 345° |
| 2026-05-06 12:20 | 46.17871 | 6.79017 | 33916 ft | 523 kts | 345° |
| 2026-05-06 12:20 | 46.25108 | 6.77047 | 33919 ft | 531 kts | 345° |
| 2026-05-06 12:21 | 46.32375 | 6.75064 | 33906 ft | 531 kts | 345° |
| 2026-05-06 12:21 | 46.39590 | 6.73101 | 33900 ft | 531 kts | 345° |
| 2026-05-06 12:22 | 46.46852 | 6.71086 | 33898 ft | 530 kts | 341° |
| 2026-05-06 12:22 | 46.50315 | 6.69224 | 33896 ft | 519 kts | 326° |
| 2026-05-06 12:22 | 46.53238 | 6.66286 | 33893 ft | 507 kts | 312° |
| 2026-05-06 12:23 | 46.58116 | 6.59104 | 33900 ft | 501 kts | 307° |
| 2026-05-06 12:23 | 46.62661 | 6.51472 | 33896 ft | 494 kts | 298° |
| 2026-05-06 12:24 | 46.65926 | 6.42825 | 33901 ft | 483 kts | 287° |
| 2026-05-06 12:24 | 46.68267 | 6.33678 | 33900 ft | 481 kts | 283° |
| 2026-05-06 12:25 | 46.70322 | 6.24427 | 33898 ft | 480 kts | 282° |
| 2026-05-06 12:25 | 46.72320 | 6.15174 | 33891 ft | 473 kts | 282° |
| 2026-05-06 12:26 | 46.73303 | 6.10671 | 33897 ft | 458 kts | 282° |
| 2026-05-06 12:26 | 46.74262 | 6.06305 | 33901 ft | 447 kts | 282° |
| 2026-05-06 12:26 | 46.76142 | 5.97693 | 33907 ft | 445 kts | 282° |
| 2026-05-06 12:27 | 46.78005 | 5.89102 | 33905 ft | 449 kts | 282° |
| 2026-05-06 12:27 | 46.79895 | 5.80399 | 33901 ft | 450 kts | 283° |
| 2026-05-06 12:28 | 46.82677 | 5.72111 | 33900 ft | 463 kts | 300° |
| 2026-05-06 12:28 | 46.87031 | 5.65068 | 33885 ft | 468 kts | 310° |
| 2026-05-06 12:29 | 46.91690 | 5.58658 | 33884 ft | 453 kts | 312° |
| 2026-05-06 12:29 | 46.96309 | 5.52425 | 33889 ft | 452 kts | 312° |
| 2026-05-06 12:30 | 47.00903 | 5.46147 | 33885 ft | 452 kts | 312° |
| 2026-05-06 12:30 | 47.05488 | 5.39817 | 33886 ft | 452 kts | 312° |
| 2026-05-06 12:31 | 47.10066 | 5.33468 | 33882 ft | 452 kts | 311° |
| 2026-05-06 12:31 | 47.14617 | 5.27143 | 33877 ft | 452 kts | 312° |
| 2026-05-06 12:32 | 47.19184 | 5.20783 | 33870 ft | 452 kts | 312° |
| 2026-05-06 12:32 | 47.23750 | 5.14440 | 33860 ft | 453 kts | 313° |
| 2026-05-06 12:33 | 47.27971 | 5.07652 | 33860 ft | 446 kts | 302° |
| 2026-05-06 12:33 | 47.31558 | 5.00264 | 33860 ft | 445 kts | 300° |
| 2026-05-06 12:34 | 47.35046 | 4.92742 | 33860 ft | 444 kts | 300° |
| 2026-05-06 12:34 | 47.38517 | 4.85192 | 33860 ft | 444 kts | 300° |
| 2026-05-06 12:35 | 47.41995 | 4.77646 | 33860 ft | 445 kts | 300° |
| 2026-05-06 12:35 | 47.45478 | 4.70095 | 33860 ft | 445 kts | 300° |
| 2026-05-06 12:36 | 47.48957 | 4.62537 | 33859 ft | 444 kts | 301° |
| 2026-05-06 12:36 | 47.52426 | 4.54974 | 33859 ft | 445 kts | 301° |
| 2026-05-06 12:37 | 47.55897 | 4.47383 | 33861 ft | 445 kts | 301° |
| 2026-05-06 12:37 | 47.59362 | 4.39784 | 33868 ft | 445 kts | 301° |
| 2026-05-06 12:38 | 47.62806 | 4.32217 | 33870 ft | 446 kts | 301° |
| 2026-05-06 12:38 | 47.66269 | 4.24586 | 33870 ft | 445 kts | 301° |
| 2026-05-06 12:39 | 47.69722 | 4.16955 | 33869 ft | 445 kts | 301° |
| 2026-05-06 12:39 | 47.73171 | 4.09310 | 33877 ft | 445 kts | 301° |
| 2026-05-06 12:40 | 47.76613 | 4.01658 | 33878 ft | 445 kts | 301° |
| 2026-05-06 12:40 | 47.80052 | 3.93993 | 33886 ft | 445 kts | 301° |
| 2026-05-06 12:41 | 47.83485 | 3.86319 | 33894 ft | 445 kts | 301° |
| 2026-05-06 12:41 | 47.86908 | 3.78643 | 33888 ft | 445 kts | 301° |
| 2026-05-06 12:42 | 47.90333 | 3.70949 | 33885 ft | 445 kts | 301° |
| 2026-05-06 12:42 | 47.93727 | 3.63296 | 33885 ft | 445 kts | 301° |
| 2026-05-06 12:43 | 47.97486 | 3.55964 | 33884 ft | 447 kts | 314° |
| 2026-05-06 12:43 | 48.02073 | 3.49664 | 33889 ft | 448 kts | 317° |
| 2026-05-06 12:44 | 48.06801 | 3.43590 | 33893 ft | 448 kts | 318° |
| 2026-05-06 12:44 | 48.11544 | 3.37550 | 33900 ft | 447 kts | 318° |
| 2026-05-06 12:45 | 48.16264 | 3.31494 | 33900 ft | 447 kts | 318° |
| 2026-05-06 12:46 | 48.23289 | 3.22392 | 33910 ft | 446 kts | 318° |
| 2026-05-06 12:46 | 48.27957 | 3.16311 | 33907 ft | 444 kts | 318° |
| 2026-05-06 12:47 | 48.32629 | 3.10215 | 33907 ft | 445 kts | 318° |
| 2026-05-06 12:47 | 48.37304 | 3.04119 | 33902 ft | 444 kts | 318° |
| 2026-05-06 12:48 | 48.41354 | 2.97191 | 33907 ft | 441 kts | 300° |
| 2026-05-06 12:48 | 48.43777 | 2.88759 | 33909 ft | 439 kts | 287° |
| 2026-05-06 12:49 | 48.45532 | 2.79944 | 33903 ft | 439 kts | 285° |
| 2026-05-06 12:49 | 48.47167 | 2.71075 | 33913 ft | 439 kts | 285° |
| 2026-05-06 12:50 | 48.48815 | 2.62208 | 33915 ft | 439 kts | 285° |
| 2026-05-06 12:50 | 48.50481 | 2.53344 | 33919 ft | 439 kts | 285° |
| 2026-05-06 12:51 | 48.52150 | 2.44483 | 33916 ft | 439 kts | 285° |
| 2026-05-06 12:51 | 48.53802 | 2.35668 | 33918 ft | 439 kts | 285° |
| 2026-05-06 12:52 | 48.55468 | 2.26740 | 33915 ft | 439 kts | 285° |
| 2026-05-06 12:52 | 48.57078 | 2.17904 | 33915 ft | 440 kts | 283° |
| 2026-05-06 12:53 | 48.58424 | 2.08813 | 33918 ft | 450 kts | 281° |
| 2026-05-06 12:53 | 48.59692 | 1.99415 | 33915 ft | 460 kts | 281° |
| 2026-05-06 12:54 | 48.60979 | 1.89933 | 33915 ft | 460 kts | 282° |
| 2026-05-06 12:54 | 48.62282 | 1.80482 | 33918 ft | 460 kts | 282° |
| 2026-05-06 12:55 | 48.63586 | 1.71011 | 33915 ft | 460 kts | 282° |
| 2026-05-06 12:55 | 48.64663 | 1.63156 | 33916 ft | 460 kts | 282° |
| 2026-05-06 12:56 | 48.66152 | 1.52148 | 33924 ft | 459 kts | 282° |
| 2026-05-06 12:56 | 48.67422 | 1.42680 | 33924 ft | 459 kts | 282° |
| 2026-05-06 12:57 | 48.68480 | 1.34738 | 33925 ft | 459 kts | 281° |
| 2026-05-06 12:57 | 48.69727 | 1.25329 | 33935 ft | 459 kts | 282° |
| 2026-05-06 12:58 | 48.70973 | 1.15860 | 33934 ft | 458 kts | 281° |
| 2026-05-06 12:58 | 48.72213 | 1.06386 | 33947 ft | 458 kts | 281° |
| 2026-05-06 12:59 | 48.73446 | 0.96916 | 33953 ft | 458 kts | 281° |
| 2026-05-06 12:59 | 48.74669 | 0.87443 | 33952 ft | 458 kts | 281° |
| 2026-05-06 13:00 | 48.75891 | 0.77971 | 33944 ft | 458 kts | 281° |
| 2026-05-06 13:00 | 48.77111 | 0.68483 | 33951 ft | 459 kts | 281° |
| 2026-05-06 13:01 | 48.78316 | 0.58997 | 33947 ft | 458 kts | 281° |
| 2026-05-06 13:01 | 48.79614 | 0.49549 | 33956 ft | 457 kts | 284° |
| 2026-05-06 13:02 | 48.81281 | 0.40236 | 33955 ft | 457 kts | 286° |
| 2026-05-06 13:02 | 48.83026 | 0.30954 | 33951 ft | 457 kts | 286° |
| 2026-05-06 13:03 | 48.84720 | 0.21727 | 33959 ft | 457 kts | 286° |
| 2026-05-06 13:03 | 48.86392 | 0.12411 | 33959 ft | 457 kts | 285° |
| 2026-05-06 13:04 | 48.88044 | 0.03095 | 33979 ft | 457 kts | 285° |
| 2026-05-06 13:04 | 48.89686 | -0.06206 | 33981 ft | 456 kts | 286° |
| 2026-05-06 13:05 | 48.91317 | -0.15490 | 33980 ft | 452 kts | 286° |
| 2026-05-06 13:05 | 48.92923 | -0.24674 | 33980 ft | 452 kts | 286° |
| 2026-05-06 13:06 | 48.94503 | -0.33915 | 33991 ft | 452 kts | 285° |
| 2026-05-06 13:06 | 48.96061 | -0.43179 | 33989 ft | 452 kts | 285° |
| 2026-05-06 13:07 | 48.97613 | -0.52455 | 33989 ft | 452 kts | 285° |
| 2026-05-06 13:07 | 48.99158 | -0.61730 | 33989 ft | 452 kts | 285° |
| 2026-05-06 13:08 | 49.00697 | -0.71004 | 33989 ft | 452 kts | 285° |
| 2026-05-06 13:08 | 49.02230 | -0.80288 | 33988 ft | 452 kts | 285° |
| 2026-05-06 13:09 | 49.03754 | -0.89573 | 33991 ft | 452 kts | 285° |
| 2026-05-06 13:09 | 49.05272 | -0.98872 | 33991 ft | 452 kts | 285° |
| 2026-05-06 13:10 | 49.06780 | -1.08163 | 33989 ft | 452 kts | 285° |
| 2026-05-06 13:10 | 49.08284 | -1.17463 | 33988 ft | 452 kts | 285° |
| 2026-05-06 13:11 | 49.09791 | -1.26770 | 33991 ft | 451 kts | 285° |
| 2026-05-06 13:11 | 49.11295 | -1.36078 | 33990 ft | 451 kts | 285° |
| 2026-05-06 13:12 | 49.12796 | -1.45392 | 33980 ft | 452 kts | 285° |
| 2026-05-06 13:12 | 49.14287 | -1.54712 | 33988 ft | 451 kts | 285° |
| 2026-05-06 13:13 | 49.15757 | -1.63965 | 33991 ft | 451 kts | 285° |
| 2026-05-06 13:13 | 49.17229 | -1.73284 | 33988 ft | 451 kts | 284° |
| 2026-05-06 13:14 | 49.18693 | -1.82605 | 33991 ft | 451 kts | 284° |
| 2026-05-06 13:14 | 49.20151 | -1.91936 | 33988 ft | 451 kts | 284° |
| 2026-05-06 13:15 | 49.21593 | -2.01212 | 33990 ft | 451 kts | 284° |
| 2026-05-06 13:15 | 49.23097 | -2.10513 | 33990 ft | 450 kts | 285° |
| 2026-05-06 13:16 | 49.24697 | -2.19772 | 33991 ft | 449 kts | 286° |
| 2026-05-06 13:16 | 49.26298 | -2.29025 | 33988 ft | 449 kts | 286° |
| 2026-05-06 13:17 | 49.27880 | -2.38280 | 33989 ft | 449 kts | 285° |
| 2026-05-06 13:17 | 49.29446 | -2.47530 | 33998 ft | 449 kts | 285° |
| 2026-05-06 13:18 | 49.31003 | -2.56800 | 33992 ft | 449 kts | 285° |
| 2026-05-06 13:18 | 49.32542 | -2.65999 | 33991 ft | 448 kts | 285° |
| 2026-05-06 13:19 | 49.34084 | -2.75272 | 33991 ft | 448 kts | 285° |
| 2026-05-06 13:19 | 49.35617 | -2.84542 | 33989 ft | 448 kts | 285° |
| 2026-05-06 13:20 | 49.37146 | -2.93836 | 33991 ft | 448 kts | 285° |
| 2026-05-06 13:20 | 49.38652 | -3.03037 | 33991 ft | 447 kts | 285° |
| 2026-05-06 13:21 | 49.40161 | -3.12308 | 33991 ft | 447 kts | 285° |
| 2026-05-06 13:21 | 49.41658 | -3.21567 | 33989 ft | 446 kts | 284° |
| 2026-05-06 13:22 | 49.43146 | -3.30821 | 33999 ft | 446 kts | 284° |
| 2026-05-06 13:22 | 49.44627 | -3.40072 | 33999 ft | 446 kts | 284° |
| 2026-05-06 13:23 | 49.46099 | -3.49315 | 33999 ft | 444 kts | 284° |
| 2026-05-06 13:23 | 49.47560 | -3.58551 | 33999 ft | 444 kts | 284° |
| 2026-05-06 13:24 | 49.49012 | -3.67777 | 33999 ft | 444 kts | 284° |
| 2026-05-06 13:24 | 49.50446 | -3.76941 | 34000 ft | 444 kts | 284° |
| 2026-05-06 13:25 | 49.51880 | -3.86160 | 33999 ft | 442 kts | 284° |
| 2026-05-06 13:25 | 49.53304 | -3.95372 | 33997 ft | 442 kts | 284° |
| 2026-05-06 13:26 | 49.54722 | -4.04592 | 34008 ft | 442 kts | 283° |
| 2026-05-06 13:26 | 49.56129 | -4.13790 | 34009 ft | 441 kts | 283° |
| 2026-05-06 13:27 | 49.57528 | -4.22989 | 34008 ft | 441 kts | 283° |
| 2026-05-06 13:27 | 49.59047 | -4.32145 | 34008 ft | 441 kts | 290° |
| 2026-05-06 13:28 | 49.61465 | -4.40830 | 34007 ft | 441 kts | 295° |
| 2026-05-06 13:28 | 49.64089 | -4.49321 | 34013 ft | 441 kts | 296° |
| 2026-05-06 13:29 | 49.66767 | -4.57844 | 34016 ft | 441 kts | 296° |
| 2026-05-06 13:29 | 49.69427 | -4.66369 | 34020 ft | 441 kts | 295° |
| 2026-05-06 13:30 | 49.72072 | -4.74924 | 34021 ft | 441 kts | 295° |
| 2026-05-06 13:30 | 49.74706 | -4.83486 | 34014 ft | 441 kts | 295° |
| 2026-05-06 13:31 | 49.77332 | -4.92059 | 34022 ft | 441 kts | 295° |
| 2026-05-06 13:31 | 49.79955 | -5.00643 | 34012 ft | 441 kts | 295° |
| 2026-05-06 13:32 | 49.82570 | -5.09236 | 34020 ft | 441 kts | 295° |
| 2026-05-06 13:32 | 49.85178 | -5.17834 | 34014 ft | 441 kts | 295° |
| 2026-05-06 13:33 | 49.87765 | -5.26389 | 34019 ft | 441 kts | 295° |
| 2026-05-06 13:33 | 49.90357 | -5.34995 | 34014 ft | 440 kts | 295° |
| 2026-05-06 13:34 | 49.92943 | -5.43614 | 34013 ft | 440 kts | 295° |
| 2026-05-06 13:34 | 49.95517 | -5.52219 | 34028 ft | 440 kts | 295° |
| 2026-05-06 13:35 | 49.98090 | -5.60850 | 34030 ft | 440 kts | 294° |
| 2026-05-06 13:35 | 50.00655 | -5.69489 | 34033 ft | 439 kts | 294° |
| 2026-05-06 13:36 | 50.03192 | -5.78066 | 34026 ft | 439 kts | 294° |
| 2026-05-06 13:36 | 50.05736 | -5.86704 | 34025 ft | 439 kts | 294° |
| 2026-05-06 13:37 | 50.08276 | -5.95343 | 34032 ft | 439 kts | 294° |
| 2026-05-06 13:37 | 50.10810 | -6.03994 | 34024 ft | 439 kts | 294° |
| 2026-05-06 13:38 | 50.13335 | -6.12650 | 34029 ft | 439 kts | 294° |
| 2026-05-06 13:38 | 50.15856 | -6.21322 | 34036 ft | 439 kts | 294° |
| 2026-05-06 13:39 | 50.18366 | -6.29992 | 34042 ft | 439 kts | 294° |
| 2026-05-06 13:39 | 50.20862 | -6.38642 | 34046 ft | 438 kts | 294° |
| 2026-05-06 13:40 | 50.23358 | -6.47322 | 34046 ft | 438 kts | 294° |
| 2026-05-06 13:40 | 50.25847 | -6.56011 | 34045 ft | 438 kts | 294° |
| 2026-05-06 13:41 | 50.28323 | -6.64688 | 34043 ft | 437 kts | 293° |
| 2026-05-06 13:41 | 50.30776 | -6.73321 | 34047 ft | 437 kts | 293° |
| 2026-05-06 13:42 | 50.33242 | -6.82016 | 34046 ft | 436 kts | 293° |
| 2026-05-06 13:42 | 50.35696 | -6.90705 | 34045 ft | 436 kts | 293° |
| 2026-05-06 13:43 | 50.38141 | -6.99396 | 34045 ft | 436 kts | 293° |
| 2026-05-06 13:43 | 50.40576 | -7.08088 | 34047 ft | 435 kts | 293° |
| 2026-05-06 13:44 | 50.43004 | -7.16788 | 34046 ft | 435 kts | 293° |
| 2026-05-06 13:44 | 50.45018 | -7.24022 | 34044 ft | 435 kts | 293° |
| 2026-05-06 13:45 | 50.47826 | -7.34148 | 34045 ft | 435 kts | 292° |
| 2026-05-06 13:45 | 50.51046 | -7.45816 | 34045 ft | 435 kts | 292° |
| 2026-05-06 13:46 | 50.53444 | -7.54545 | 34045 ft | 435 kts | 292° |
| 2026-05-06 13:46 | 50.55833 | -7.63282 | 34033 ft | 434 kts | 292° |
| 2026-05-06 13:47 | 50.58213 | -7.72007 | 34041 ft | 434 kts | 292° |
| 2026-05-06 13:47 | 50.60586 | -7.80739 | 34039 ft | 434 kts | 292° |
| 2026-05-06 13:48 | 50.62940 | -7.89431 | 34031 ft | 434 kts | 292° |
| 2026-05-06 13:48 | 50.65300 | -7.98184 | 34031 ft | 434 kts | 292° |
| 2026-05-06 13:49 | 50.67480 | -8.07069 | 34041 ft | 434 kts | 289° |
| 2026-05-06 13:49 | 50.69486 | -8.16059 | 34035 ft | 435 kts | 289° |
| 2026-05-06 13:50 | 50.71476 | -8.25057 | 34039 ft | 435 kts | 289° |
| 2026-05-06 13:50 | 50.73488 | -8.34074 | 34034 ft | 435 kts | 289° |
| 2026-05-06 13:51 | 50.75504 | -8.43084 | 34036 ft | 435 kts | 289° |
| 2026-05-06 13:51 | 50.77513 | -8.52096 | 34035 ft | 435 kts | 289° |
| 2026-05-06 13:52 | 50.79517 | -8.61123 | 34028 ft | 435 kts | 289° |
| 2026-05-06 13:52 | 50.81497 | -8.70092 | 34030 ft | 435 kts | 289° |
| 2026-05-06 13:53 | 50.83485 | -8.79134 | 34024 ft | 435 kts | 289° |
| 2026-05-06 13:53 | 50.85472 | -8.88204 | 34026 ft | 436 kts | 289° |
| 2026-05-06 13:54 | 50.87452 | -8.97285 | 34024 ft | 436 kts | 289° |
| 2026-05-06 13:54 | 50.89424 | -9.06369 | 34028 ft | 436 kts | 289° |
| 2026-05-06 13:55 | 50.91387 | -9.15464 | 34024 ft | 436 kts | 289° |
| 2026-05-06 13:55 | 50.93349 | -9.24577 | 34032 ft | 437 kts | 288° |
| 2026-05-06 13:56 | 50.95293 | -9.33648 | 34017 ft | 437 kts | 288° |
| 2026-05-06 13:56 | 50.97238 | -9.42773 | 34013 ft | 437 kts | 288° |
| 2026-05-06 13:57 | 50.99179 | -9.51918 | 34013 ft | 438 kts | 288° |
| 2026-05-06 13:57 | 51.01118 | -9.61091 | 34019 ft | 438 kts | 288° |
| 2026-05-06 13:58 | 51.03051 | -9.70276 | 34017 ft | 438 kts | 288° |
| 2026-05-06 13:58 | 51.04974 | -9.79469 | 34016 ft | 438 kts | 288° |
| 2026-05-06 13:59 | 51.06895 | -9.88673 | 34017 ft | 438 kts | 288° |
| 2026-05-06 13:59 | 51.08805 | -9.97889 | 34022 ft | 439 kts | 288° |
| 2026-05-06 14:00 | 51.10711 | -10.07124 | 34020 ft | 440 kts | 289° |
| 2026-05-06 14:00 | 51.12621 | -10.16415 | 34014 ft | 442 kts | 289° |
| 2026-05-06 14:01 | 51.14515 | -10.25675 | 34027 ft | 443 kts | 289° |
| 2026-05-06 14:01 | 51.16415 | -10.35009 | 34027 ft | 442 kts | 289° |
| 2026-05-06 14:02 | 51.18310 | -10.44349 | 34024 ft | 443 kts | 289° |
| 2026-05-06 14:02 | 51.20197 | -10.53704 | 34031 ft | 443 kts | 289° |
| 2026-05-06 14:03 | 51.22075 | -10.63064 | 34033 ft | 443 kts | 289° |
| 2026-05-06 14:03 | 51.23949 | -10.72450 | 34024 ft | 444 kts | 289° |
| 2026-05-06 14:04 | 51.25816 | -10.81843 | 34023 ft | 444 kts | 289° |
| 2026-05-06 14:04 | 51.27681 | -10.91263 | 34029 ft | 445 kts | 289° |
| 2026-05-06 14:05 | 51.29540 | -11.00701 | 34031 ft | 446 kts | 289° |
| 2026-05-06 14:05 | 51.31392 | -11.10158 | 34020 ft | 446 kts | 289° |
| 2026-05-06 14:06 | 51.33238 | -11.19626 | 34031 ft | 447 kts | 289° |
| 2026-05-06 14:06 | 51.35067 | -11.29066 | 34031 ft | 448 kts | 289° |
| 2026-05-06 14:07 | 51.36905 | -11.38590 | 34024 ft | 448 kts | 289° |
| 2026-05-06 14:07 | 51.38742 | -11.48142 | 34031 ft | 449 kts | 289° |
| 2026-05-06 14:08 | 51.40571 | -11.57710 | 34032 ft | 449 kts | 289° |
| 2026-05-06 14:08 | 51.42389 | -11.67292 | 34020 ft | 450 kts | 289° |
| 2026-05-06 14:09 | 51.44206 | -11.76893 | 34026 ft | 450 kts | 289° |
| 2026-05-06 14:09 | 51.46016 | -11.86506 | 34028 ft | 451 kts | 289° |
| 2026-05-06 14:10 | 51.47811 | -11.96090 | 34026 ft | 451 kts | 289° |
| 2026-05-06 14:10 | 51.49607 | -12.05737 | 34022 ft | 451 kts | 289° |
| 2026-05-06 14:11 | 51.51406 | -12.15416 | 34023 ft | 453 kts | 289° |
| 2026-05-06 14:11 | 51.53194 | -12.25118 | 34025 ft | 453 kts | 289° |
| 2026-05-06 14:12 | 51.54973 | -12.34842 | 34025 ft | 453 kts | 289° |
| 2026-05-06 14:12 | 51.56742 | -12.44553 | 34027 ft | 453 kts | 289° |
| 2026-05-06 14:13 | 51.58508 | -12.54274 | 34032 ft | 453 kts | 289° |
| 2026-05-06 14:13 | 51.60254 | -12.63943 | 34021 ft | 453 kts | 289° |
| 2026-05-06 14:14 | 51.62003 | -12.73685 | 34032 ft | 454 kts | 289° |
| 2026-05-06 14:14 | 51.63748 | -12.83461 | 34022 ft | 454 kts | 289° |
| 2026-05-06 14:15 | 51.65484 | -12.93232 | 34020 ft | 454 kts | 289° |
| 2026-05-06 14:15 | 51.67212 | -13.03019 | 34026 ft | 454 kts | 289° |
| 2026-05-06 14:16 | 51.68934 | -13.12821 | 34032 ft | 455 kts | 289° |
| 2026-05-06 14:16 | 51.70648 | -13.22637 | 34032 ft | 455 kts | 289° |
| 2026-05-06 14:17 | 51.72356 | -13.32472 | 34032 ft | 455 kts | 289° |
| 2026-05-06 14:17 | 51.74047 | -13.42260 | 34024 ft | 456 kts | 289° |
| 2026-05-06 14:18 | 51.75744 | -13.52139 | 34022 ft | 456 kts | 289° |
| 2026-05-06 14:18 | 51.77430 | -13.62012 | 34024 ft | 457 kts | 289° |
| 2026-05-06 14:19 | 51.79111 | -13.71910 | 34024 ft | 457 kts | 289° |
| 2026-05-06 14:19 | 51.80783 | -13.81816 | 34024 ft | 457 kts | 289° |
| 2026-05-06 14:20 | 51.82453 | -13.91744 | 34032 ft | 457 kts | 289° |
| 2026-05-06 14:20 | 51.84101 | -14.01613 | 34037 ft | 457 kts | 289° |
| 2026-05-06 14:21 | 51.85759 | -14.11615 | 34036 ft | 458 kts | 289° |
| 2026-05-06 14:21 | 51.87389 | -14.21505 | 34046 ft | 458 kts | 289° |
| 2026-05-06 14:22 | 51.89024 | -14.31470 | 34032 ft | 457 kts | 288° |
| 2026-05-06 14:22 | 51.90647 | -14.41419 | 34031 ft | 458 kts | 288° |
| 2026-05-06 14:23 | 51.92265 | -14.51395 | 34032 ft | 457 kts | 288° |
| 2026-05-06 14:23 | 51.93875 | -14.61384 | 34046 ft | 457 kts | 288° |
| 2026-05-06 14:24 | 51.95473 | -14.71348 | 34032 ft | 457 kts | 288° |
| 2026-05-06 14:24 | 51.97050 | -14.81254 | 34034 ft | 456 kts | 288° |
| 2026-05-06 14:25 | 51.98630 | -14.91229 | 34038 ft | 456 kts | 288° |
| 2026-05-06 14:25 | 51.99905 | -15.01320 | 34042 ft | 459 kts | 278° |
| 2026-05-06 14:26 | 52.00291 | -15.11668 | 34036 ft | 458 kts | 276° |
| 2026-05-06 14:26 | 52.00492 | -15.21973 | 34030 ft | 456 kts | 275° |
| 2026-05-06 14:27 | 52.00658 | -15.32272 | 34041 ft | 456 kts | 275° |
| 2026-05-06 14:27 | 52.00830 | -15.42544 | 34040 ft | 455 kts | 275° |
| 2026-05-06 14:28 | 52.01004 | -15.52817 | 34034 ft | 456 kts | 275° |
| 2026-05-06 14:28 | 52.01173 | -15.63110 | 34034 ft | 456 kts | 275° |
| 2026-05-06 14:29 | 52.01332 | -15.73350 | 34040 ft | 456 kts | 275° |
| 2026-05-06 14:29 | 52.01481 | -15.83657 | 34031 ft | 456 kts | 275° |
| 2026-05-06 14:30 | 52.01623 | -15.93974 | 34041 ft | 457 kts | 275° |
| 2026-05-06 14:30 | 52.01756 | -16.04294 | 34046 ft | 457 kts | 275° |
| 2026-05-06 14:31 | 52.01878 | -16.14616 | 34044 ft | 457 kts | 274° |
| 2026-05-06 14:31 | 52.01990 | -16.24868 | 34046 ft | 457 kts | 274° |
| 2026-05-06 14:32 | 52.02094 | -16.35175 | 34045 ft | 456 kts | 274° |
| 2026-05-06 14:32 | 52.02189 | -16.45475 | 34046 ft | 456 kts | 274° |
| 2026-05-06 14:33 | 52.02262 | -16.54093 | 34046 ft | 455 kts | 274° |
| 2026-05-06 14:33 | 52.02341 | -16.64293 | 34044 ft | 454 kts | 274° |
| 2026-05-06 14:34 | 52.02411 | -16.74539 | 34045 ft | 454 kts | 274° |
| 2026-05-06 14:34 | 52.02474 | -16.84772 | 34046 ft | 453 kts | 274° |
| 2026-05-06 14:35 | 52.02526 | -16.95000 | 34044 ft | 452 kts | 274° |
| 2026-05-06 14:35 | 52.02569 | -17.05198 | 34044 ft | 452 kts | 274° |
| 2026-05-06 14:36 | 52.02600 | -17.15327 | 34045 ft | 451 kts | 273° |
| 2026-05-06 14:36 | 52.02625 | -17.25510 | 34046 ft | 451 kts | 273° |
| 2026-05-06 14:37 | 52.02642 | -17.35687 | 34046 ft | 451 kts | 273° |
| 2026-05-06 14:37 | 52.02649 | -17.45874 | 34051 ft | 451 kts | 273° |
| 2026-05-06 14:38 | 52.02650 | -17.56055 | 34055 ft | 451 kts | 273° |
| 2026-05-06 14:38 | 52.02641 | -17.66260 | 34054 ft | 451 kts | 273° |
| 2026-05-06 14:39 | 52.02623 | -17.76446 | 34056 ft | 452 kts | 272° |
| 2026-05-06 14:39 | 52.02596 | -17.86657 | 34053 ft | 452 kts | 272° |
| 2026-05-06 14:40 | 52.02559 | -17.96799 | 34054 ft | 452 kts | 272° |
| 2026-05-06 14:40 | 52.02515 | -18.07018 | 34054 ft | 452 kts | 272° |
| 2026-05-06 14:41 | 52.02462 | -18.17241 | 34055 ft | 452 kts | 272° |
| 2026-05-06 14:41 | 52.02399 | -18.27458 | 34055 ft | 452 kts | 272° |
| 2026-05-06 14:42 | 52.02326 | -18.37661 | 34056 ft | 452 kts | 272° |
| 2026-05-06 14:42 | 52.02247 | -18.47856 | 34055 ft | 451 kts | 272° |
| 2026-05-06 14:43 | 52.02159 | -18.58048 | 34053 ft | 451 kts | 272° |
| 2026-05-06 14:43 | 52.02060 | -18.68221 | 34054 ft | 450 kts | 272° |
| 2026-05-06 14:44 | 52.01954 | -18.78393 | 34054 ft | 450 kts | 271° |
| 2026-05-06 14:45 | 52.01780 | -18.93543 | 34064 ft | 449 kts | 271° |
| 2026-05-06 14:45 | 52.01653 | -19.03686 | 34064 ft | 449 kts | 271° |
| 2026-05-06 14:46 | 52.01517 | -19.13835 | 34063 ft | 449 kts | 271° |
| 2026-05-06 14:46 | 52.01370 | -19.23967 | 34063 ft | 449 kts | 270° |
| 2026-05-06 14:47 | 52.01217 | -19.34104 | 34063 ft | 449 kts | 270° |
| 2026-05-06 14:47 | 52.01057 | -19.44184 | 34063 ft | 449 kts | 270° |
| 2026-05-06 14:48 | 52.00887 | -19.54318 | 34063 ft | 449 kts | 270° |
| 2026-05-06 14:48 | 52.00706 | -19.64457 | 34063 ft | 450 kts | 270° |
| 2026-05-06 14:49 | 52.00516 | -19.74611 | 34063 ft | 450 kts | 270° |
| 2026-05-06 14:49 | 52.00318 | -19.84772 | 34063 ft | 450 kts | 270° |
| 2026-05-06 14:50 | 52.00112 | -19.94938 | 34063 ft | 451 kts | 269° |
| 2026-05-06 14:50 | 52.00234 | -20.05095 | 34064 ft | 449 kts | 275° |
| 2026-05-06 14:51 | 52.00619 | -20.15223 | 34063 ft | 449 kts | 275° |
| 2026-05-06 14:51 | 52.01042 | -20.25341 | 34063 ft | 449 kts | 275° |
| 2026-05-06 14:52 | 52.01457 | -20.35455 | 34080 ft | 449 kts | 275° |
| 2026-05-06 14:52 | 52.01851 | -20.45497 | 34080 ft | 449 kts | 275° |
| 2026-05-06 14:53 | 52.02234 | -20.55593 | 34080 ft | 448 kts | 275° |
| 2026-05-06 14:53 | 52.02609 | -20.65685 | 34080 ft | 447 kts | 274° |
| 2026-05-06 14:54 | 52.02976 | -20.75764 | 34085 ft | 447 kts | 274° |
| 2026-05-06 14:54 | 52.03336 | -20.85848 | 34092 ft | 446 kts | 274° |
| 2026-05-06 14:55 | 52.03686 | -20.95917 | 34117 ft | 446 kts | 274° |
| 2026-05-06 14:55 | 52.04026 | -21.05970 | 34147 ft | 445 kts | 273° |
| 2026-05-06 14:56 | 52.04354 | -21.15941 | 34153 ft | 445 kts | 273° |
| 2026-05-06 14:56 | 52.04677 | -21.25982 | 34156 ft | 445 kts | 273° |
| 2026-05-06 14:57 | 52.04991 | -21.36018 | 34154 ft | 445 kts | 272° |
| 2026-05-06 14:57 | 52.05297 | -21.46048 | 34156 ft | 445 kts | 272° |
| 2026-05-06 14:58 | 52.05594 | -21.56098 | 34156 ft | 445 kts | 272° |
| 2026-05-06 14:58 | 52.05882 | -21.66130 | 34156 ft | 444 kts | 272° |
| 2026-05-06 14:59 | 52.06161 | -21.76182 | 34156 ft | 445 kts | 272° |
| 2026-05-06 14:59 | 52.06431 | -21.86158 | 34151 ft | 439 kts | 272° |
| 2026-05-06 15:00 | 52.06687 | -21.95879 | 34155 ft | 425 kts | 271° |
| 2026-05-06 15:00 | 52.06929 | -22.05474 | 34156 ft | 425 kts | 271° |
| 2026-05-06 15:01 | 52.07163 | -22.15072 | 34156 ft | 425 kts | 271° |
| 2026-05-06 15:01 | 52.07390 | -22.24671 | 34156 ft | 425 kts | 271° |
| 2026-05-06 15:02 | 52.07611 | -22.34276 | 34156 ft | 425 kts | 271° |
| 2026-05-06 15:02 | 52.07822 | -22.43865 | 34154 ft | 424 kts | 271° |
| 2026-05-06 15:03 | 52.08025 | -22.53458 | 34156 ft | 424 kts | 271° |
| 2026-05-06 15:03 | 52.08222 | -22.62980 | 34164 ft | 424 kts | 271° |
| 2026-05-06 15:04 | 52.08411 | -22.72582 | 34174 ft | 424 kts | 271° |
| 2026-05-06 15:04 | 52.08590 | -22.82170 | 34174 ft | 424 kts | 270° |
| 2026-05-06 15:05 | 52.08764 | -22.91765 | 34174 ft | 424 kts | 270° |
| 2026-05-06 15:05 | 52.08930 | -23.01347 | 34174 ft | 424 kts | 270° |
| 2026-05-06 15:06 | 52.09089 | -23.10949 | 34178 ft | 424 kts | 270° |
| 2026-05-06 15:06 | 52.09238 | -23.20540 | 34184 ft | 424 kts | 270° |
| 2026-05-06 15:07 | 52.09378 | -23.30065 | 34183 ft | 424 kts | 270° |
| 2026-05-06 15:07 | 52.09512 | -23.39675 | 34183 ft | 425 kts | 269° |
| 2026-05-06 15:08 | 52.09638 | -23.49279 | 34183 ft | 425 kts | 269° |
| 2026-05-06 15:08 | 52.09758 | -23.58894 | 34187 ft | 425 kts | 269° |
| 2026-05-06 15:09 | 52.09869 | -23.68509 | 34200 ft | 425 kts | 269° |
| 2026-05-06 15:09 | 52.09970 | -23.78123 | 34201 ft | 425 kts | 269° |
| 2026-05-06 15:10 | 52.10066 | -23.87746 | 34201 ft | 425 kts | 269° |
| 2026-05-06 15:10 | 52.10154 | -23.97378 | 34202 ft | 426 kts | 269° |
| 2026-05-06 15:11 | 52.10234 | -24.07008 | 34201 ft | 426 kts | 269° |
| 2026-05-06 15:11 | 52.10306 | -24.16577 | 34210 ft | 425 kts | 269° |
| 2026-05-06 15:12 | 52.10370 | -24.26205 | 34193 ft | 424 kts | 267° |
| 2026-05-06 15:12 | 52.10426 | -24.35741 | 34192 ft | 421 kts | 267° |
| 2026-05-06 15:13 | 52.10473 | -24.45249 | 34242 ft | 420 kts | 267° |
| 2026-05-06 15:13 | 52.10512 | -24.54744 | 34235 ft | 420 kts | 267° |
| 2026-05-06 15:14 | 52.10544 | -24.64240 | 34243 ft | 419 kts | 267° |
| 2026-05-06 15:14 | 52.10569 | -24.73713 | 34243 ft | 419 kts | 266° |
| 2026-05-06 15:15 | 52.10586 | -24.83174 | 34234 ft | 417 kts | 266° |
| 2026-05-06 15:15 | 52.10593 | -24.92562 | 34262 ft | 417 kts | 267° |
| 2026-05-06 15:16 | 52.10597 | -25.01999 | 34267 ft | 417 kts | 267° |
| 2026-05-06 15:16 | 52.10593 | -25.11420 | 34266 ft | 416 kts | 266° |
| 2026-05-06 15:17 | 52.10580 | -25.20807 | 34271 ft | 415 kts | 267° |
| 2026-05-06 15:17 | 52.10560 | -25.30178 | 34315 ft | 414 kts | 266° |
| 2026-05-06 15:18 | 52.10533 | -25.39539 | 34312 ft | 413 kts | 266° |
| 2026-05-06 15:18 | 52.10498 | -25.48859 | 34316 ft | 412 kts | 266° |
| 2026-05-06 15:19 | 52.10455 | -25.58175 | 34314 ft | 411 kts | 266° |
| 2026-05-06 15:19 | 52.10406 | -25.67470 | 34320 ft | 411 kts | 266° |
| 2026-05-06 15:20 | 52.10349 | -25.76751 | 34315 ft | 409 kts | 266° |
| 2026-05-06 15:20 | 52.10285 | -25.86002 | 34315 ft | 409 kts | 266° |
| 2026-05-06 15:21 | 52.10214 | -25.95251 | 34309 ft | 409 kts | 266° |
| 2026-05-06 15:21 | 52.10138 | -26.04449 | 34316 ft | 409 kts | 266° |
| 2026-05-06 15:22 | 52.10052 | -26.13702 | 34310 ft | 409 kts | 266° |
| 2026-05-06 15:22 | 52.09959 | -26.22935 | 34311 ft | 409 kts | 266° |
| 2026-05-06 15:23 | 52.09877 | -26.30626 | 34313 ft | 409 kts | 266° |
| 2026-05-06 15:23 | 52.09771 | -26.39882 | 34309 ft | 409 kts | 266° |
| 2026-05-06 15:24 | 52.09661 | -26.49141 | 34309 ft | 410 kts | 266° |
| 2026-05-06 15:24 | 52.09537 | -26.58424 | 34312 ft | 411 kts | 266° |
| 2026-05-06 15:25 | 52.09407 | -26.67729 | 34315 ft | 411 kts | 266° |
| 2026-05-06 15:25 | 52.09271 | -26.77017 | 34317 ft | 411 kts | 266° |
| 2026-05-06 15:26 | 52.09129 | -26.86266 | 34309 ft | 412 kts | 266° |
| 2026-05-06 15:26 | 52.08979 | -26.95596 | 34310 ft | 413 kts | 265° |
| 2026-05-06 15:27 | 52.08820 | -27.04936 | 34301 ft | 414 kts | 265° |
| 2026-05-06 15:27 | 52.08656 | -27.14286 | 34298 ft | 414 kts | 265° |
| 2026-05-06 15:28 | 52.08482 | -27.23639 | 34298 ft | 414 kts | 265° |
| 2026-05-06 15:28 | 52.08301 | -27.33003 | 34303 ft | 414 kts | 265° |
| 2026-05-06 15:29 | 52.08112 | -27.42354 | 34304 ft | 414 kts | 265° |
| 2026-05-06 15:29 | 52.07916 | -27.51710 | 34305 ft | 414 kts | 265° |
| 2026-05-06 15:30 | 52.07714 | -27.61067 | 34303 ft | 414 kts | 265° |
| 2026-05-06 15:30 | 52.07504 | -27.70421 | 34302 ft | 414 kts | 265° |
| 2026-05-06 15:31 | 52.07286 | -27.79775 | 34303 ft | 414 kts | 265° |
| 2026-05-06 15:31 | 52.07061 | -27.89122 | 34302 ft | 414 kts | 265° |
| 2026-05-06 15:32 | 52.06710 | -28.03083 | 34300 ft | 414 kts | 265° |
| 2026-05-06 15:32 | 52.06467 | -28.12425 | 34313 ft | 413 kts | 265° |
| 2026-05-06 15:33 | 52.06217 | -28.21759 | 34305 ft | 414 kts | 265° |
| 2026-05-06 15:33 | 52.05959 | -28.31102 | 34299 ft | 414 kts | 265° |
| 2026-05-06 15:34 | 52.05694 | -28.40452 | 34303 ft | 415 kts | 265° |
| 2026-05-06 15:34 | 52.05420 | -28.49814 | 34309 ft | 415 kts | 265° |
| 2026-05-06 15:35 | 52.05136 | -28.59198 | 34305 ft | 416 kts | 265° |
| 2026-05-06 15:35 | 52.04845 | -28.68600 | 34305 ft | 416 kts | 265° |
| 2026-05-06 15:36 | 52.04550 | -28.77941 | 34300 ft | 417 kts | 265° |
| 2026-05-06 15:36 | 52.04244 | -28.87366 | 34301 ft | 418 kts | 265° |
| 2026-05-06 15:37 | 52.03929 | -28.96817 | 34299 ft | 419 kts | 265° |
| 2026-05-06 15:37 | 52.03608 | -29.06277 | 34301 ft | 420 kts | 265° |
| 2026-05-06 15:38 | 52.03280 | -29.15753 | 34301 ft | 421 kts | 265° |
| 2026-05-06 15:38 | 52.02941 | -29.25260 | 34299 ft | 422 kts | 265° |
| 2026-05-06 15:39 | 52.02588 | -29.34801 | 34302 ft | 425 kts | 264° |
| 2026-05-06 15:39 | 52.02228 | -29.44337 | 34301 ft | 423 kts | 265° |
| 2026-05-06 15:40 | 52.01868 | -29.53895 | 34309 ft | 424 kts | 265° |
| 2026-05-06 15:40 | 52.01499 | -29.63456 | 34296 ft | 424 kts | 265° |
| 2026-05-06 15:41 | 52.01119 | -29.73019 | 34294 ft | 425 kts | 265° |
| 2026-05-06 15:41 | 52.00733 | -29.82524 | 34294 ft | 426 kts | 265° |
| 2026-05-06 15:42 | 52.00337 | -29.92120 | 34296 ft | 425 kts | 264° |
| 2026-05-06 15:42 | 51.99920 | -30.01698 | 34296 ft | 425 kts | 264° |
| 2026-05-06 15:43 | 51.99399 | -30.11257 | 34296 ft | 425 kts | 263° |
| 2026-05-06 15:43 | 51.98837 | -30.20808 | 34294 ft | 425 kts | 263° |
| 2026-05-06 15:44 | 51.98275 | -30.30305 | 34294 ft | 425 kts | 263° |
| 2026-05-06 15:44 | 51.97708 | -30.39854 | 34295 ft | 425 kts | 263° |
| 2026-05-06 15:45 | 51.97139 | -30.49390 | 34295 ft | 425 kts | 263° |
| 2026-05-06 15:45 | 51.96561 | -30.58930 | 34291 ft | 424 kts | 263° |
| 2026-05-06 15:46 | 51.95976 | -30.68461 | 34296 ft | 424 kts | 263° |
| 2026-05-06 15:46 | 51.95387 | -30.77974 | 34295 ft | 424 kts | 263° |
| 2026-05-06 15:47 | 51.94786 | -30.87479 | 34294 ft | 423 kts | 263° |
| 2026-05-06 15:47 | 51.94181 | -30.96971 | 34297 ft | 424 kts | 263° |
| 2026-05-06 15:48 | 51.93567 | -31.06467 | 34290 ft | 423 kts | 263° |
| 2026-05-06 15:48 | 51.92945 | -31.15962 | 34291 ft | 423 kts | 263° |
| 2026-05-06 15:49 | 51.92320 | -31.25388 | 34284 ft | 423 kts | 263° |
| 2026-05-06 15:49 | 51.91684 | -31.34864 | 34282 ft | 424 kts | 263° |
| 2026-05-06 15:50 | 51.91038 | -31.44364 | 34285 ft | 424 kts | 263° |
| 2026-05-06 15:50 | 51.90385 | -31.53857 | 34285 ft | 424 kts | 263° |
| 2026-05-06 15:51 | 51.89724 | -31.63347 | 34285 ft | 424 kts | 263° |
| 2026-05-06 15:51 | 51.89056 | -31.72851 | 34284 ft | 425 kts | 263° |
| 2026-05-06 15:52 | 51.88379 | -31.82349 | 34286 ft | 425 kts | 263° |
| 2026-05-06 15:52 | 51.87696 | -31.91851 | 34286 ft | 425 kts | 263° |
| 2026-05-06 15:53 | 51.87003 | -32.01353 | 34282 ft | 425 kts | 263° |
| 2026-05-06 15:53 | 51.86302 | -32.10849 | 34283 ft | 425 kts | 263° |
| 2026-05-06 15:54 | 51.85598 | -32.20283 | 34286 ft | 425 kts | 263° |
| 2026-05-06 15:54 | 51.84882 | -32.29776 | 34286 ft | 425 kts | 263° |
| 2026-05-06 15:55 | 51.84159 | -32.39261 | 34283 ft | 425 kts | 263° |
| 2026-05-06 15:55 | 51.83428 | -32.48750 | 34282 ft | 425 kts | 263° |
| 2026-05-06 15:56 | 51.82690 | -32.58237 | 34285 ft | 425 kts | 263° |
| 2026-05-06 15:56 | 51.81946 | -32.67694 | 34286 ft | 424 kts | 263° |
| 2026-05-06 15:57 | 51.81193 | -32.77157 | 34285 ft | 424 kts | 263° |
| 2026-05-06 15:57 | 51.80432 | -32.86616 | 34276 ft | 424 kts | 262° |
| 2026-05-06 15:58 | 51.79667 | -32.96009 | 34275 ft | 424 kts | 263° |
| 2026-05-06 15:58 | 51.78891 | -33.05475 | 34275 ft | 425 kts | 263° |
| 2026-05-06 15:59 | 51.78108 | -33.14937 | 34275 ft | 425 kts | 263° |
| 2026-05-06 15:59 | 51.77317 | -33.24404 | 34275 ft | 426 kts | 263° |
| 2026-05-06 16:00 | 51.76515 | -33.33900 | 34275 ft | 426 kts | 263° |
| 2026-05-06 16:00 | 51.75705 | -33.43386 | 34275 ft | 427 kts | 262° |
| 2026-05-06 16:01 | 51.74889 | -33.52872 | 34275 ft | 427 kts | 262° |
| 2026-05-06 16:01 | 51.74069 | -33.62296 | 34275 ft | 428 kts | 262° |
| 2026-05-06 16:02 | 51.73234 | -33.71809 | 34276 ft | 428 kts | 262° |
| 2026-05-06 16:02 | 51.72390 | -33.81324 | 34275 ft | 428 kts | 262° |
| 2026-05-06 16:03 | 51.71538 | -33.90822 | 34274 ft | 428 kts | 262° |
| 2026-05-06 16:03 | 51.70678 | -34.00327 | 34275 ft | 428 kts | 262° |
| 2026-05-06 16:04 | 51.69812 | -34.09830 | 34276 ft | 428 kts | 262° |
| 2026-05-06 16:04 | 51.68938 | -34.19328 | 34276 ft | 429 kts | 262° |
| 2026-05-06 16:05 | 51.68061 | -34.28769 | 34275 ft | 429 kts | 262° |
| 2026-05-06 16:05 | 51.67171 | -34.38264 | 34275 ft | 428 kts | 262° |
| 2026-05-06 16:06 | 51.66275 | -34.47747 | 34275 ft | 428 kts | 262° |
| 2026-05-06 16:06 | 51.65372 | -34.57210 | 34274 ft | 428 kts | 262° |
| 2026-05-06 16:07 | 51.64461 | -34.66673 | 34275 ft | 427 kts | 262° |
| 2026-05-06 16:07 | 51.63544 | -34.76116 | 34275 ft | 427 kts | 262° |
| 2026-05-06 16:08 | 51.62620 | -34.85543 | 34275 ft | 427 kts | 262° |
| 2026-05-06 16:08 | 51.61690 | -34.94975 | 34274 ft | 426 kts | 262° |
| 2026-05-06 16:09 | 51.60758 | -35.04330 | 34275 ft | 426 kts | 262° |
| 2026-05-06 16:09 | 51.59813 | -35.13736 | 34239 ft | 426 kts | 262° |
| 2026-05-06 16:10 | 51.58858 | -35.23144 | 34228 ft | 426 kts | 262° |
| 2026-05-06 16:10 | 51.57896 | -35.32543 | 34229 ft | 426 kts | 262° |
| 2026-05-06 16:11 | 51.56933 | -35.41940 | 34224 ft | 426 kts | 262° |
| 2026-05-06 16:11 | 51.56122 | -35.49753 | 34233 ft | 426 kts | 262° |
| 2026-05-06 16:12 | 51.55138 | -35.59156 | 34235 ft | 427 kts | 262° |
| 2026-05-06 16:12 | 51.54149 | -35.68548 | 34221 ft | 427 kts | 262° |
| 2026-05-06 16:13 | 51.53151 | -35.77947 | 34233 ft | 427 kts | 262° |
| 2026-05-06 16:13 | 51.52145 | -35.87347 | 34226 ft | 427 kts | 262° |
| 2026-05-06 16:14 | 51.51131 | -35.96735 | 34224 ft | 427 kts | 262° |
| 2026-05-06 16:14 | 51.50107 | -36.06144 | 34231 ft | 427 kts | 262° |
| 2026-05-06 16:15 | 51.49077 | -36.15534 | 34234 ft | 427 kts | 262° |
| 2026-05-06 16:15 | 51.48042 | -36.24900 | 34231 ft | 426 kts | 262° |
| 2026-05-06 16:16 | 51.47001 | -36.34255 | 34231 ft | 426 kts | 262° |
| 2026-05-06 16:16 | 51.45953 | -36.43599 | 34230 ft | 426 kts | 262° |
| 2026-05-06 16:17 | 51.44899 | -36.52926 | 34233 ft | 425 kts | 262° |
| 2026-05-06 16:17 | 51.43836 | -36.62250 | 34234 ft | 424 kts | 262° |
| 2026-05-06 16:18 | 51.42778 | -36.71490 | 34233 ft | 424 kts | 262° |
| 2026-05-06 16:18 | 51.41706 | -36.80771 | 34235 ft | 423 kts | 263° |
| 2026-05-06 16:19 | 51.40627 | -36.90040 | 34227 ft | 423 kts | 263° |
| 2026-05-06 16:19 | 51.39542 | -36.99293 | 34229 ft | 422 kts | 263° |
| 2026-05-06 16:20 | 51.38453 | -37.08522 | 34238 ft | 422 kts | 263° |
| 2026-05-06 16:20 | 51.37356 | -37.17760 | 34250 ft | 421 kts | 263° |
| 2026-05-06 16:21 | 51.36254 | -37.26967 | 34275 ft | 421 kts | 263° |
| 2026-05-06 16:21 | 51.35142 | -37.36183 | 34275 ft | 422 kts | 263° |
| 2026-05-06 16:22 | 51.34023 | -37.45390 | 34275 ft | 422 kts | 263° |
| 2026-05-06 16:22 | 51.32898 | -37.54587 | 34275 ft | 421 kts | 263° |
| 2026-05-06 16:23 | 51.31775 | -37.63713 | 34275 ft | 420 kts | 263° |
| 2026-05-06 16:23 | 51.30637 | -37.72895 | 34275 ft | 421 kts | 263° |
| 2026-05-06 16:24 | 51.29490 | -37.82082 | 34275 ft | 421 kts | 263° |
| 2026-05-06 16:24 | 51.28339 | -37.91254 | 34275 ft | 421 kts | 262° |
| 2026-05-06 16:25 | 51.27178 | -38.00417 | 34276 ft | 420 kts | 262° |
| 2026-05-06 16:25 | 51.26022 | -38.09500 | 34275 ft | 419 kts | 263° |
| 2026-05-06 16:26 | 51.24856 | -38.18596 | 34275 ft | 417 kts | 263° |
| 2026-05-06 16:26 | 51.23687 | -38.27669 | 34276 ft | 418 kts | 263° |
| 2026-05-06 16:27 | 51.22508 | -38.36736 | 34275 ft | 417 kts | 263° |
| 2026-05-06 16:27 | 51.21325 | -38.45794 | 34275 ft | 417 kts | 263° |
| 2026-05-06 16:28 | 51.20134 | -38.54837 | 34275 ft | 417 kts | 263° |
| 2026-05-06 16:28 | 51.18941 | -38.63862 | 34275 ft | 416 kts | 263° |
| 2026-05-06 16:29 | 51.17741 | -38.72883 | 34275 ft | 415 kts | 263° |
| 2026-05-06 16:29 | 51.16535 | -38.81878 | 34275 ft | 414 kts | 264° |
| 2026-05-06 16:30 | 51.15530 | -38.89333 | 34276 ft | 414 kts | 264° |
| 2026-05-06 16:30 | 51.14119 | -38.99742 | 34276 ft | 413 kts | 264° |
| 2026-05-06 16:31 | 51.12900 | -39.08669 | 34275 ft | 412 kts | 264° |
| 2026-05-06 16:31 | 51.11675 | -39.17583 | 34275 ft | 412 kts | 264° |
| 2026-05-06 16:32 | 51.10446 | -39.26476 | 34276 ft | 412 kts | 264° |
| 2026-05-06 16:32 | 51.09211 | -39.35361 | 34268 ft | 411 kts | 264° |
| 2026-05-06 16:33 | 51.07972 | -39.44225 | 34265 ft | 410 kts | 264° |
| 2026-05-06 16:34 | 51.06102 | -39.57496 | 34265 ft | 409 kts | 264° |
| 2026-05-06 16:34 | 51.04849 | -39.66316 | 34265 ft | 409 kts | 264° |
| 2026-05-06 16:35 | 51.03594 | -39.75124 | 34265 ft | 409 kts | 264° |
| 2026-05-06 16:35 | 51.02337 | -39.83883 | 34267 ft | 409 kts | 264° |
| 2026-05-06 16:36 | 51.01066 | -39.92669 | 34266 ft | 409 kts | 264° |
| 2026-05-06 16:36 | 50.99785 | -40.01461 | 34266 ft | 409 kts | 264° |
| 2026-05-06 16:37 | 50.98471 | -40.10213 | 34267 ft | 405 kts | 265° |
| 2026-05-06 16:37 | 50.97153 | -40.18873 | 34267 ft | 403 kts | 265° |
| 2026-05-06 16:38 | 50.95839 | -40.27507 | 34266 ft | 403 kts | 265° |
| 2026-05-06 16:38 | 50.94520 | -40.36132 | 34266 ft | 402 kts | 265° |
| 2026-05-06 16:39 | 50.93194 | -40.44748 | 34267 ft | 402 kts | 265° |
| 2026-05-06 16:39 | 50.91873 | -40.53290 | 34267 ft | 401 kts | 265° |
| 2026-05-06 16:40 | 50.90539 | -40.61870 | 34267 ft | 401 kts | 265° |
| 2026-05-06 16:40 | 50.89201 | -40.70441 | 34267 ft | 401 kts | 265° |
| 2026-05-06 16:41 | 50.87857 | -40.78990 | 34261 ft | 400 kts | 265° |
| 2026-05-06 16:41 | 50.86505 | -40.87545 | 34258 ft | 399 kts | 265° |
| 2026-05-06 16:42 | 50.85151 | -40.96068 | 34256 ft | 399 kts | 265° |
| 2026-05-06 16:42 | 50.83793 | -41.04582 | 34255 ft | 399 kts | 265° |
| 2026-05-06 16:43 | 50.82436 | -41.13035 | 34256 ft | 398 kts | 265° |
| 2026-05-06 16:43 | 50.81070 | -41.21502 | 34257 ft | 397 kts | 265° |
| 2026-05-06 16:44 | 50.79699 | -41.29957 | 34256 ft | 397 kts | 265° |
| 2026-05-06 16:44 | 50.78324 | -41.38401 | 34255 ft | 396 kts | 265° |
| 2026-05-06 16:45 | 50.76947 | -41.46819 | 34256 ft | 396 kts | 265° |
| 2026-05-06 16:45 | 50.75564 | -41.55231 | 34255 ft | 396 kts | 265° |
| 2026-05-06 16:46 | 50.74176 | -41.63625 | 34256 ft | 395 kts | 265° |
| 2026-05-06 16:46 | 50.72784 | -41.72007 | 34258 ft | 394 kts | 265° |
| 2026-05-06 16:47 | 50.71385 | -41.80383 | 34257 ft | 394 kts | 265° |
| 2026-05-06 16:47 | 50.69990 | -41.88696 | 34257 ft | 395 kts | 265° |
| 2026-05-06 16:48 | 50.68580 | -41.97068 | 34255 ft | 395 kts | 265° |
| 2026-05-06 16:48 | 50.67161 | -42.05436 | 34256 ft | 394 kts | 265° |
| 2026-05-06 16:49 | 50.65739 | -42.13780 | 34258 ft | 393 kts | 265° |
| 2026-05-06 16:49 | 50.64316 | -42.22108 | 34256 ft | 393 kts | 265° |
| 2026-05-06 16:50 | 50.62887 | -42.30432 | 34257 ft | 393 kts | 265° |
| 2026-05-06 16:50 | 50.61462 | -42.38687 | 34258 ft | 393 kts | 265° |
| 2026-05-06 16:51 | 50.60010 | -42.47051 | 34257 ft | 394 kts | 265° |
| 2026-05-06 16:51 | 50.58571 | -42.55312 | 34256 ft | 394 kts | 265° |
| 2026-05-06 16:52 | 50.57116 | -42.63621 | 34255 ft | 394 kts | 265° |
| 2026-05-06 16:52 | 50.55655 | -42.71924 | 34256 ft | 394 kts | 265° |
| 2026-05-06 16:53 | 50.54185 | -42.80242 | 34256 ft | 395 kts | 265° |
| 2026-05-06 16:53 | 50.52711 | -42.88544 | 34256 ft | 394 kts | 265° |
| 2026-05-06 16:54 | 50.51229 | -42.96847 | 34257 ft | 395 kts | 265° |
| 2026-05-06 16:54 | 50.49740 | -43.05150 | 34256 ft | 395 kts | 264° |
| 2026-05-06 16:55 | 50.48255 | -43.13398 | 34257 ft | 395 kts | 264° |
| 2026-05-06 16:55 | 50.46754 | -43.21703 | 34256 ft | 396 kts | 264° |
| 2026-05-06 16:56 | 50.45245 | -43.30016 | 34257 ft | 396 kts | 264° |
| 2026-05-06 16:56 | 50.43730 | -43.38320 | 34247 ft | 397 kts | 264° |
| 2026-05-06 16:57 | 50.42201 | -43.46648 | 34247 ft | 397 kts | 264° |
| 2026-05-06 16:57 | 50.40670 | -43.54957 | 34247 ft | 397 kts | 264° |
| 2026-05-06 16:58 | 50.39131 | -43.63278 | 34248 ft | 397 kts | 264° |
| 2026-05-06 16:58 | 50.37587 | -43.71587 | 34247 ft | 397 kts | 264° |
| 2026-05-06 16:59 | 50.36045 | -43.79844 | 34247 ft | 397 kts | 263° |
| 2026-05-06 16:59 | 50.34489 | -43.88146 | 34247 ft | 398 kts | 263° |
| 2026-05-06 17:00 | 50.33178 | -43.95107 | 34247 ft | 398 kts | 263° |
| 2026-05-06 17:00 | 50.31605 | -44.03407 | 34249 ft | 398 kts | 263° |
| 2026-05-06 17:01 | 50.30037 | -44.11669 | 34247 ft | 398 kts | 263° |
| 2026-05-06 17:01 | 50.28452 | -44.19988 | 34247 ft | 399 kts | 263° |
| 2026-05-06 17:02 | 50.26861 | -44.28295 | 34247 ft | 399 kts | 263° |
| 2026-05-06 17:02 | 50.25267 | -44.36585 | 34247 ft | 399 kts | 263° |
| 2026-05-06 17:03 | 50.23664 | -44.44879 | 34247 ft | 399 kts | 263° |
| 2026-05-06 17:03 | 50.22056 | -44.53153 | 34247 ft | 398 kts | 263° |
| 2026-05-06 17:04 | 50.20445 | -44.61416 | 34247 ft | 398 kts | 263° |
| 2026-05-06 17:04 | 50.18826 | -44.69693 | 34247 ft | 399 kts | 262° |
| 2026-05-06 17:05 | 50.17201 | -44.77957 | 34247 ft | 399 kts | 262° |
| 2026-05-06 17:05 | 50.15577 | -44.86176 | 34247 ft | 399 kts | 262° |
| 2026-05-06 17:06 | 50.13939 | -44.94435 | 34247 ft | 399 kts | 262° |
| 2026-05-06 17:06 | 50.12293 | -45.02707 | 34247 ft | 399 kts | 262° |
| 2026-05-06 17:07 | 50.10642 | -45.10966 | 34162 ft | 400 kts | 262° |
| 2026-05-06 17:07 | 50.08980 | -45.19245 | 34120 ft | 401 kts | 261° |
| 2026-05-06 17:08 | 50.07307 | -45.27528 | 34119 ft | 401 kts | 261° |
| 2026-05-06 17:08 | 50.05629 | -45.35815 | 34119 ft | 402 kts | 261° |
| 2026-05-06 17:09 | 50.03941 | -45.44111 | 34119 ft | 402 kts | 261° |
| 2026-05-06 17:09 | 50.02247 | -45.52415 | 34120 ft | 403 kts | 261° |
| 2026-05-06 17:10 | 50.00547 | -45.60709 | 34119 ft | 402 kts | 261° |
| 2026-05-06 17:10 | 49.98839 | -45.68995 | 34119 ft | 403 kts | 260° |
| 2026-05-06 17:11 | 49.97123 | -45.77295 | 34120 ft | 404 kts | 260° |
| 2026-05-06 17:11 | 49.95411 | -45.85534 | 34119 ft | 404 kts | 260° |
| 2026-05-06 17:12 | 49.93681 | -45.93824 | 34126 ft | 404 kts | 260° |
| 2026-05-06 17:12 | 49.91941 | -46.02125 | 34128 ft | 404 kts | 260° |
| 2026-05-06 17:13 | 49.90202 | -46.10402 | 34127 ft | 403 kts | 260° |
| 2026-05-06 17:13 | 49.88455 | -46.18687 | 34127 ft | 404 kts | 260° |
| 2026-05-06 17:14 | 49.86698 | -46.26968 | 34128 ft | 404 kts | 260° |
| 2026-05-06 17:14 | 49.84935 | -46.35242 | 34128 ft | 404 kts | 259° |
| 2026-05-06 17:15 | 49.83166 | -46.43503 | 34128 ft | 404 kts | 259° |
| 2026-05-06 17:15 | 49.81391 | -46.51770 | 34128 ft | 404 kts | 259° |
| 2026-05-06 17:16 | 49.79614 | -46.60028 | 34128 ft | 404 kts | 259° |
| 2026-05-06 17:16 | 49.77833 | -46.68272 | 34128 ft | 404 kts | 259° |
| 2026-05-06 17:17 | 49.76053 | -46.76460 | 34128 ft | 404 kts | 258° |
| 2026-05-06 17:17 | 49.74255 | -46.84708 | 34128 ft | 404 kts | 258° |
| 2026-05-06 17:18 | 49.72455 | -46.92938 | 34128 ft | 404 kts | 258° |
| 2026-05-06 17:18 | 49.70650 | -47.01153 | 34127 ft | 404 kts | 257° |
| 2026-05-06 17:19 | 49.68837 | -47.09368 | 34128 ft | 404 kts | 257° |
| 2026-05-06 17:19 | 49.67007 | -47.17575 | 34146 ft | 404 kts | 257° |
| 2026-05-06 17:20 | 49.65186 | -47.25772 | 34146 ft | 404 kts | 257° |
| 2026-05-06 17:20 | 49.63374 | -47.33917 | 34146 ft | 404 kts | 257° |
| 2026-05-06 17:21 | 49.61542 | -47.42096 | 34146 ft | 404 kts | 257° |
| 2026-05-06 17:21 | 49.59700 | -47.50277 | 34147 ft | 404 kts | 256° |
| 2026-05-06 17:22 | 49.57852 | -47.58453 | 34144 ft | 404 kts | 256° |
| 2026-05-06 17:22 | 49.55999 | -47.66620 | 34156 ft | 403 kts | 256° |
| 2026-05-06 17:23 | 49.54140 | -47.74784 | 34156 ft | 404 kts | 256° |
| 2026-05-06 17:23 | 49.52286 | -47.82894 | 34156 ft | 404 kts | 256° |
| 2026-05-06 17:24 | 49.50418 | -47.91042 | 34156 ft | 404 kts | 256° |
| 2026-05-06 17:24 | 49.48542 | -47.99191 | 34156 ft | 404 kts | 256° |
| 2026-05-06 17:25 | 49.46659 | -48.07332 | 34156 ft | 404 kts | 255° |
| 2026-05-06 17:25 | 49.44774 | -48.15456 | 34154 ft | 403 kts | 255° |
| 2026-05-06 17:26 | 49.42881 | -48.23580 | 34156 ft | 403 kts | 255° |
| 2026-05-06 17:26 | 49.40993 | -48.31641 | 34156 ft | 403 kts | 255° |
| 2026-05-06 17:27 | 49.39098 | -48.39729 | 34156 ft | 403 kts | 255° |
| 2026-05-06 17:27 | 49.37194 | -48.47818 | 34156 ft | 403 kts | 255° |
| 2026-05-06 17:28 | 49.35279 | -48.55911 | 34156 ft | 403 kts | 255° |
| 2026-05-06 17:28 | 49.33362 | -48.63986 | 34156 ft | 403 kts | 255° |
| 2026-05-06 17:29 | 49.31441 | -48.72042 | 34156 ft | 403 kts | 255° |
| 2026-05-06 17:29 | 49.29513 | -48.80096 | 34156 ft | 402 kts | 254° |
| 2026-05-06 17:30 | 49.27584 | -48.88142 | 34164 ft | 402 kts | 254° |
| 2026-05-06 17:30 | 49.25663 | -48.96123 | 34165 ft | 402 kts | 254° |
| 2026-05-06 17:31 | 49.23724 | -49.04155 | 34165 ft | 401 kts | 254° |
| 2026-05-06 17:31 | 49.21779 | -49.12172 | 34165 ft | 402 kts | 254° |
| 2026-05-06 17:32 | 49.19824 | -49.20190 | 34165 ft | 402 kts | 253° |
| 2026-05-06 17:32 | 49.17869 | -49.28188 | 34165 ft | 402 kts | 253° |
| 2026-05-06 17:33 | 49.15907 | -49.36185 | 34166 ft | 402 kts | 253° |
| 2026-05-06 17:33 | 49.13936 | -49.44191 | 34165 ft | 402 kts | 253° |
| 2026-05-06 17:34 | 49.11964 | -49.52171 | 34165 ft | 402 kts | 253° |
| 2026-05-06 17:34 | 49.09999 | -49.60101 | 34174 ft | 402 kts | 253° |
| 2026-05-06 17:35 | 49.08019 | -49.68066 | 34174 ft | 402 kts | 253° |
| 2026-05-06 17:35 | 49.06025 | -49.76046 | 34174 ft | 402 kts | 253° |
| 2026-05-06 17:36 | 49.03023 | -49.88009 | 34183 ft | 402 kts | 253° |
| 2026-05-06 17:36 | 49.01033 | -49.95911 | 34183 ft | 402 kts | 253° |
| 2026-05-06 17:37 | 48.99055 | -50.03874 | 34183 ft | 402 kts | 253° |
| 2026-05-06 17:37 | 48.97133 | -50.11887 | 34183 ft | 402 kts | 253° |
| 2026-05-06 17:38 | 48.95218 | -50.19886 | 34183 ft | 402 kts | 253° |
| 2026-05-06 17:38 | 48.93297 | -50.27867 | 34183 ft | 402 kts | 253° |
| 2026-05-06 17:39 | 48.91364 | -50.35853 | 34183 ft | 402 kts | 252° |
| 2026-05-06 17:39 | 48.89424 | -50.43853 | 34183 ft | 403 kts | 252° |
| 2026-05-06 17:40 | 48.87471 | -50.51840 | 34183 ft | 403 kts | 252° |
| 2026-05-06 17:40 | 48.85511 | -50.59815 | 34183 ft | 403 kts | 252° |
| 2026-05-06 17:41 | 48.83554 | -50.67773 | 34183 ft | 403 kts | 252° |
| 2026-05-06 17:41 | 48.81588 | -50.75740 | 34183 ft | 403 kts | 252° |
| 2026-05-06 17:42 | 48.79628 | -50.83657 | 34183 ft | 403 kts | 252° |
| 2026-05-06 17:42 | 48.77652 | -50.91607 | 34183 ft | 403 kts | 251° |
| 2026-05-06 17:43 | 48.75669 | -50.99553 | 34183 ft | 403 kts | 251° |
| 2026-05-06 17:43 | 48.73685 | -51.07494 | 34182 ft | 402 kts | 251° |
| 2026-05-06 17:44 | 48.71694 | -51.15412 | 34184 ft | 404 kts | 251° |
| 2026-05-06 17:44 | 48.69688 | -51.23387 | 34185 ft | 406 kts | 251° |
| 2026-05-06 17:45 | 48.67669 | -51.31343 | 34190 ft | 402 kts | 251° |
| 2026-05-06 17:45 | 48.65646 | -51.39280 | 34193 ft | 405 kts | 250° |
| 2026-05-06 17:46 | 48.63960 | -51.45894 | 34189 ft | 405 kts | 251° |
| 2026-05-06 17:46 | 48.61611 | -51.55103 | 34196 ft | 400 kts | 250° |
| 2026-05-06 17:47 | 48.59922 | -51.61708 | 34195 ft | 403 kts | 250° |
| 2026-05-06 17:47 | 48.57890 | -51.69610 | 34193 ft | 405 kts | 250° |
| 2026-05-06 17:48 | 48.55829 | -51.77542 | 34192 ft | 405 kts | 250° |
| 2026-05-06 17:48 | 48.53783 | -51.85441 | 34191 ft | 402 kts | 250° |
| 2026-05-06 17:49 | 48.51753 | -51.93257 | 34195 ft | 405 kts | 250° |
| 2026-05-06 17:49 | 48.50055 | -52.01331 | 34193 ft | 402 kts | 261° |
| 2026-05-06 17:50 | 48.49308 | -52.09690 | 34196 ft | 403 kts | 263° |
| 2026-05-06 17:50 | 48.48748 | -52.18071 | 34186 ft | 402 kts | 264° |
| 2026-05-06 17:51 | 48.48229 | -52.26466 | 34193 ft | 402 kts | 264° |
| 2026-05-06 17:51 | 48.47681 | -52.34795 | 34196 ft | 401 kts | 263° |
| 2026-05-06 17:52 | 48.47111 | -52.43145 | 34194 ft | 400 kts | 263° |
| 2026-05-06 17:52 | 48.46511 | -52.51471 | 34193 ft | 400 kts | 263° |
| 2026-05-06 17:53 | 48.45909 | -52.59784 | 34193 ft | 399 kts | 263° |
| 2026-05-06 17:53 | 48.45301 | -52.68115 | 34195 ft | 401 kts | 263° |
| 2026-05-06 17:54 | 48.44707 | -52.76388 | 34199 ft | 398 kts | 263° |
| 2026-05-06 17:54 | 48.44120 | -52.84675 | 34192 ft | 398 kts | 263° |
| 2026-05-06 17:55 | 48.43512 | -52.93005 | 34192 ft | 401 kts | 263° |
| 2026-05-06 17:55 | 48.42896 | -53.01347 | 34188 ft | 401 kts | 263° |
| 2026-05-06 17:56 | 48.42263 | -53.09667 | 34182 ft | 399 kts | 262° |
| 2026-05-06 17:56 | 48.41632 | -53.17968 | 34184 ft | 398 kts | 262° |
| 2026-05-06 17:57 | 48.40999 | -53.26207 | 34165 ft | 398 kts | 262° |
| 2026-05-06 17:57 | 48.40362 | -53.34482 | 34165 ft | 398 kts | 262° |
| 2026-05-06 17:58 | 48.39713 | -53.42768 | 34157 ft | 398 kts | 262° |
| 2026-05-06 17:58 | 48.39063 | -53.51038 | 34157 ft | 398 kts | 262° |
| 2026-05-06 17:59 | 48.38408 | -53.59299 | 34156 ft | 398 kts | 262° |
| 2026-05-06 17:59 | 48.37745 | -53.67563 | 34145 ft | 397 kts | 262° |
| 2026-05-06 18:00 | 48.37079 | -53.75797 | 34146 ft | 397 kts | 261° |
| 2026-05-06 18:00 | 48.36406 | -53.84027 | 34147 ft | 396 kts | 261° |
| 2026-05-06 18:01 | 48.35729 | -53.92261 | 34138 ft | 397 kts | 261° |
| 2026-05-06 18:01 | 48.35042 | -54.00499 | 34138 ft | 397 kts | 261° |
| 2026-05-06 18:02 | 48.34354 | -54.08673 | 34138 ft | 397 kts | 261° |
| 2026-05-06 18:02 | 48.33658 | -54.16911 | 34128 ft | 397 kts | 261° |
| 2026-05-06 18:03 | 48.32955 | -54.25135 | 34128 ft | 397 kts | 261° |
| 2026-05-06 18:03 | 48.32245 | -54.33368 | 34128 ft | 397 kts | 261° |
| 2026-05-06 18:04 | 48.31531 | -54.41589 | 34128 ft | 397 kts | 261° |
| 2026-05-06 18:04 | 48.30810 | -54.49821 | 34128 ft | 398 kts | 261° |
| 2026-05-06 18:05 | 48.30083 | -54.58059 | 34128 ft | 398 kts | 261° |
| 2026-05-06 18:05 | 48.29349 | -54.66292 | 34118 ft | 398 kts | 261° |
| 2026-05-06 18:06 | 48.28606 | -54.74550 | 34119 ft | 399 kts | 261° |
| 2026-05-06 18:06 | 48.27856 | -54.82818 | 34119 ft | 399 kts | 261° |
| 2026-05-06 18:07 | 48.27101 | -54.91096 | 34118 ft | 400 kts | 261° |
| 2026-05-06 18:07 | 48.26344 | -54.99374 | 34119 ft | 402 kts | 261° |
| 2026-05-06 18:08 | 48.25568 | -55.07694 | 34116 ft | 402 kts | 261° |
| 2026-05-06 18:08 | 48.24786 | -55.16032 | 34117 ft | 403 kts | 260° |
| 2026-05-06 18:09 | 48.24014 | -55.24309 | 34119 ft | 401 kts | 260° |
| 2026-05-06 18:09 | 48.23232 | -55.32676 | 34126 ft | 403 kts | 261° |
| 2026-05-06 18:10 | 48.22429 | -55.41028 | 34132 ft | 405 kts | 260° |
| 2026-05-06 18:10 | 48.21626 | -55.49413 | 34129 ft | 407 kts | 260° |
| 2026-05-06 18:11 | 48.20798 | -55.57801 | 34125 ft | 406 kts | 260° |
| 2026-05-06 18:11 | 48.19966 | -55.66175 | 34128 ft | 406 kts | 260° |
| 2026-05-06 18:12 | 48.19133 | -55.74560 | 34120 ft | 408 kts | 261° |
| 2026-05-06 18:12 | 48.18298 | -55.82965 | 34118 ft | 408 kts | 261° |
| 2026-05-06 18:13 | 48.17454 | -55.91383 | 34120 ft | 409 kts | 261° |
| 2026-05-06 18:13 | 48.16603 | -55.99814 | 34118 ft | 409 kts | 261° |
| 2026-05-06 18:14 | 48.15749 | -56.08192 | 34119 ft | 409 kts | 260° |
| 2026-05-06 18:14 | 48.14886 | -56.16611 | 34125 ft | 409 kts | 260° |
| 2026-05-06 18:15 | 48.14015 | -56.25022 | 34112 ft | 409 kts | 260° |
| 2026-05-06 18:15 | 48.13141 | -56.33435 | 34110 ft | 408 kts | 260° |
| 2026-05-06 18:16 | 48.12260 | -56.41826 | 34110 ft | 408 kts | 260° |
| 2026-05-06 18:16 | 48.11373 | -56.50206 | 34109 ft | 408 kts | 260° |
| 2026-05-06 18:17 | 48.10480 | -56.58586 | 34109 ft | 407 kts | 260° |
| 2026-05-06 18:17 | 48.09590 | -56.66874 | 34109 ft | 406 kts | 260° |
| 2026-05-06 18:18 | 48.08689 | -56.75224 | 34110 ft | 406 kts | 260° |
| 2026-05-06 18:18 | 48.07785 | -56.83546 | 34110 ft | 405 kts | 261° |
| 2026-05-06 18:19 | 48.06877 | -56.91854 | 34110 ft | 404 kts | 260° |
| 2026-05-06 18:19 | 48.05960 | -57.00146 | 34110 ft | 404 kts | 261° |
| 2026-05-06 18:20 | 48.05041 | -57.08424 | 34110 ft | 404 kts | 261° |
| 2026-05-06 18:20 | 48.04117 | -57.16695 | 34109 ft | 403 kts | 261° |
| 2026-05-06 18:21 | 48.03194 | -57.24896 | 34109 ft | 403 kts | 261° |
| 2026-05-06 18:21 | 48.02260 | -57.33138 | 34109 ft | 403 kts | 261° |
| 2026-05-06 18:22 | 48.01320 | -57.41379 | 34109 ft | 402 kts | 261° |
| 2026-05-06 18:22 | 48.00363 | -57.49732 | 34104 ft | 417 kts | 261° |
| 2026-05-06 18:23 | 47.99361 | -57.58419 | 34103 ft | 432 kts | 261° |
| 2026-05-06 18:23 | 47.98323 | -57.67331 | 34100 ft | 437 kts | 261° |
| 2026-05-06 18:24 | 47.97273 | -57.76278 | 34099 ft | 437 kts | 261° |
| 2026-05-06 18:24 | 47.96218 | -57.85200 | 34101 ft | 437 kts | 261° |
| 2026-05-06 18:25 | 47.95157 | -57.94120 | 34092 ft | 436 kts | 261° |
| 2026-05-06 18:25 | 47.94089 | -58.03041 | 34091 ft | 437 kts | 261° |
| 2026-05-06 18:26 | 47.93018 | -58.11944 | 34088 ft | 436 kts | 261° |
| 2026-05-06 18:26 | 47.91940 | -58.20795 | 34096 ft | 437 kts | 261° |
| 2026-05-06 18:27 | 47.90850 | -58.29719 | 34097 ft | 437 kts | 261° |
| 2026-05-06 18:27 | 47.89760 | -58.38614 | 34087 ft | 436 kts | 261° |
| 2026-05-06 18:28 | 47.88659 | -58.47502 | 34090 ft | 436 kts | 261° |
| 2026-05-06 18:28 | 47.87550 | -58.56381 | 34096 ft | 435 kts | 261° |
| 2026-05-06 18:29 | 47.86440 | -58.65234 | 34091 ft | 435 kts | 261° |
| 2026-05-06 18:29 | 47.85331 | -58.74029 | 34096 ft | 434 kts | 261° |
| 2026-05-06 18:30 | 47.84209 | -58.82858 | 34095 ft | 433 kts | 261° |
| 2026-05-06 18:30 | 47.83082 | -58.91667 | 34081 ft | 433 kts | 261° |
| 2026-05-06 18:31 | 47.81952 | -59.00445 | 34084 ft | 431 kts | 261° |
| 2026-05-06 18:31 | 47.80817 | -59.09197 | 34079 ft | 430 kts | 261° |
| 2026-05-06 18:32 | 47.79679 | -59.17920 | 34083 ft | 429 kts | 261° |
| 2026-05-06 18:32 | 47.78537 | -59.26625 | 34085 ft | 428 kts | 261° |
| 2026-05-06 18:33 | 47.77392 | -59.35306 | 34084 ft | 427 kts | 261° |
| 2026-05-06 18:33 | 47.76263 | -59.43806 | 34080 ft | 426 kts | 261° |
| 2026-05-06 18:34 | 47.75111 | -59.52425 | 34082 ft | 425 kts | 261° |
| 2026-05-06 18:34 | 47.73955 | -59.61026 | 34084 ft | 424 kts | 261° |
| 2026-05-06 18:35 | 47.72808 | -59.69508 | 34085 ft | 424 kts | 261° |
| 2026-05-06 18:35 | 47.71656 | -59.77973 | 34083 ft | 423 kts | 261° |
| 2026-05-06 18:36 | 47.70683 | -59.85090 | 34079 ft | 423 kts | 261° |
| 2026-05-06 18:36 | 47.69507 | -59.93634 | 34085 ft | 422 kts | 261° |
| 2026-05-06 18:37 | 47.68329 | -60.02172 | 34073 ft | 422 kts | 261° |
| 2026-05-06 18:37 | 47.67142 | -60.10710 | 34020 ft | 422 kts | 261° |
| 2026-05-06 18:38 | 47.65951 | -60.19226 | 34018 ft | 421 kts | 261° |
| 2026-05-06 18:38 | 47.64754 | -60.27736 | 34007 ft | 422 kts | 261° |
| 2026-05-06 18:39 | 47.63557 | -60.36183 | 34009 ft | 421 kts | 260° |
| 2026-05-06 18:40 | 47.61802 | -60.48491 | 34010 ft | 421 kts | 260° |
| 2026-05-06 18:40 | 47.60583 | -60.56988 | 34007 ft | 422 kts | 260° |
| 2026-05-06 18:41 | 47.59356 | -60.65500 | 33999 ft | 422 kts | 260° |
| 2026-05-06 18:41 | 47.58123 | -60.73997 | 34000 ft | 422 kts | 259° |
| 2026-05-06 18:42 | 47.56884 | -60.82494 | 33998 ft | 422 kts | 259° |
| 2026-05-06 18:42 | 47.55640 | -60.90973 | 33999 ft | 421 kts | 259° |
| 2026-05-06 18:43 | 47.54390 | -60.99454 | 33991 ft | 421 kts | 259° |
| 2026-05-06 18:43 | 47.53135 | -61.07913 | 33990 ft | 421 kts | 259° |
| 2026-05-06 18:44 | 47.51874 | -61.16359 | 33988 ft | 420 kts | 259° |
| 2026-05-06 18:44 | 47.50609 | -61.24793 | 33991 ft | 420 kts | 259° |
| 2026-05-06 18:45 | 47.49340 | -61.33218 | 33980 ft | 419 kts | 258° |
| 2026-05-06 18:45 | 47.48077 | -61.41562 | 33980 ft | 418 kts | 258° |
| 2026-05-06 18:46 | 47.46799 | -61.49957 | 33980 ft | 418 kts | 258° |
| 2026-05-06 18:46 | 47.45517 | -61.58326 | 33981 ft | 417 kts | 258° |
| 2026-05-06 18:47 | 47.44230 | -61.66689 | 33980 ft | 417 kts | 258° |
| 2026-05-06 18:47 | 47.42935 | -61.75050 | 33981 ft | 417 kts | 258° |
| 2026-05-06 18:48 | 47.42037 | -61.83490 | 33980 ft | 416 kts | 263° |
| 2026-05-06 18:48 | 47.41317 | -61.91965 | 33980 ft | 416 kts | 263° |
| 2026-05-06 18:49 | 47.40632 | -62.00447 | 33981 ft | 416 kts | 263° |
| 2026-05-06 18:49 | 47.39937 | -62.08913 | 33980 ft | 415 kts | 263° |
| 2026-05-06 18:50 | 47.39231 | -62.17351 | 33981 ft | 414 kts | 262° |
| 2026-05-06 18:50 | 47.38519 | -62.25744 | 33981 ft | 415 kts | 262° |
| 2026-05-06 18:51 | 47.37799 | -62.34193 | 33980 ft | 415 kts | 262° |
| 2026-05-06 18:51 | 47.37078 | -62.42568 | 33981 ft | 415 kts | 262° |
| 2026-05-06 18:52 | 47.36343 | -62.51012 | 33980 ft | 415 kts | 262° |
| 2026-05-06 18:52 | 47.35600 | -62.59457 | 33982 ft | 415 kts | 262° |
| 2026-05-06 18:53 | 47.34853 | -62.67902 | 33981 ft | 415 kts | 262° |
| 2026-05-06 18:53 | 47.34100 | -62.76349 | 33980 ft | 415 kts | 262° |
| 2026-05-06 18:54 | 47.33340 | -62.84778 | 33980 ft | 414 kts | 262° |
| 2026-05-06 18:54 | 47.32578 | -62.93192 | 33980 ft | 414 kts | 262° |
| 2026-05-06 18:55 | 47.31815 | -63.01550 | 33980 ft | 414 kts | 261° |
| 2026-05-06 18:55 | 47.31038 | -63.09975 | 33980 ft | 414 kts | 261° |
| 2026-05-06 18:56 | 47.30257 | -63.18364 | 33964 ft | 413 kts | 261° |
| 2026-05-06 18:56 | 47.29470 | -63.26755 | 33953 ft | 414 kts | 261° |
| 2026-05-06 18:57 | 47.28676 | -63.35143 | 33951 ft | 413 kts | 261° |
| 2026-05-06 18:57 | 47.27880 | -63.43506 | 33951 ft | 413 kts | 261° |
| 2026-05-06 18:58 | 47.27076 | -63.51867 | 33956 ft | 412 kts | 260° |
| 2026-05-06 18:58 | 47.26266 | -63.60212 | 33954 ft | 412 kts | 260° |
| 2026-05-06 18:59 | 47.25453 | -63.68558 | 33951 ft | 411 kts | 260° |
| 2026-05-06 18:59 | 47.24644 | -63.76824 | 33951 ft | 411 kts | 260° |
| 2026-05-06 19:00 | 47.23817 | -63.85155 | 33944 ft | 411 kts | 260° |
| 2026-05-06 19:00 | 47.22985 | -63.93479 | 33939 ft | 411 kts | 260° |
| 2026-05-06 19:01 | 47.22146 | -64.01797 | 33947 ft | 411 kts | 260° |
| 2026-05-06 19:01 | 47.21307 | -64.10090 | 33938 ft | 409 kts | 259° |
| 2026-05-06 19:02 | 47.20463 | -64.18366 | 33948 ft | 409 kts | 259° |
| 2026-05-06 19:02 | 47.19614 | -64.26639 | 33934 ft | 409 kts | 259° |
| 2026-05-06 19:03 | 47.18758 | -64.34901 | 33926 ft | 409 kts | 259° |
| 2026-05-06 19:03 | 47.17905 | -64.43077 | 33925 ft | 409 kts | 259° |
| 2026-05-06 19:04 | 47.17034 | -64.51346 | 33913 ft | 410 kts | 259° |
| 2026-05-06 19:04 | 47.16164 | -64.59570 | 33908 ft | 409 kts | 259° |
| 2026-05-06 19:05 | 47.15284 | -64.67837 | 33904 ft | 409 kts | 259° |
| 2026-05-06 19:05 | 47.14395 | -64.76106 | 33893 ft | 410 kts | 259° |
| 2026-05-06 19:06 | 47.13502 | -64.84364 | 33890 ft | 409 kts | 259° |
| 2026-05-06 19:06 | 47.12606 | -64.92607 | 33892 ft | 408 kts | 259° |
| 2026-05-06 19:07 | 47.11707 | -65.00794 | 33890 ft | 408 kts | 259° |
| 2026-05-06 19:07 | 47.10793 | -65.09078 | 33886 ft | 408 kts | 259° |
| 2026-05-06 19:08 | 47.09879 | -65.17296 | 33888 ft | 408 kts | 259° |
| 2026-05-06 19:08 | 47.08962 | -65.25508 | 33885 ft | 408 kts | 259° |
| 2026-05-06 19:09 | 47.08037 | -65.33715 | 33890 ft | 408 kts | 259° |
| 2026-05-06 19:09 | 47.07106 | -65.41911 | 33886 ft | 407 kts | 259° |
| 2026-05-06 19:10 | 47.06177 | -65.50044 | 33889 ft | 406 kts | 259° |
| 2026-05-06 19:10 | 47.05239 | -65.58217 | 33885 ft | 407 kts | 259° |
| 2026-05-06 19:11 | 47.04294 | -65.66399 | 33870 ft | 407 kts | 259° |
| 2026-05-06 19:11 | 47.03342 | -65.74581 | 33870 ft | 407 kts | 259° |
| 2026-05-06 19:12 | 47.02385 | -65.82752 | 33870 ft | 407 kts | 259° |
| 2026-05-06 19:12 | 47.01422 | -65.90915 | 33870 ft | 407 kts | 259° |
| 2026-05-06 19:13 | 47.00452 | -65.99087 | 33870 ft | 407 kts | 259° |
| 2026-05-06 19:13 | 46.99478 | -66.07248 | 33869 ft | 405 kts | 258° |
| 2026-05-06 19:14 | 46.98506 | -66.15357 | 33869 ft | 404 kts | 258° |
| 2026-05-06 19:14 | 46.97532 | -66.23409 | 33869 ft | 403 kts | 258° |
| 2026-05-06 19:15 | 46.96547 | -66.31499 | 33869 ft | 404 kts | 258° |
| 2026-05-06 19:15 | 46.95559 | -66.39585 | 33868 ft | 403 kts | 258° |
| 2026-05-06 19:16 | 46.94562 | -66.47677 | 33869 ft | 404 kts | 257° |
| 2026-05-06 19:16 | 46.93558 | -66.55774 | 33865 ft | 404 kts | 257° |
| 2026-05-06 19:17 | 46.92551 | -66.63861 | 33850 ft | 404 kts | 257° |
| 2026-05-06 19:17 | 46.91536 | -66.71934 | 33851 ft | 403 kts | 257° |
| 2026-05-06 19:18 | 46.90518 | -66.80006 | 33845 ft | 403 kts | 257° |
| 2026-05-06 19:18 | 46.89498 | -66.88063 | 33843 ft | 403 kts | 257° |
| 2026-05-06 19:19 | 46.88478 | -66.96060 | 33843 ft | 402 kts | 257° |
| 2026-05-06 19:19 | 46.87404 | -67.04077 | 33842 ft | 401 kts | 253° |
| 2026-05-06 19:20 | 46.85839 | -67.11888 | 33841 ft | 400 kts | 251° |
| 2026-05-06 19:20 | 46.84198 | -67.19668 | 33842 ft | 400 kts | 251° |
| 2026-05-06 19:21 | 46.82546 | -67.27422 | 33842 ft | 400 kts | 251° |
| 2026-05-06 19:21 | 46.80886 | -67.35166 | 33841 ft | 399 kts | 251° |
| 2026-05-06 19:22 | 46.79224 | -67.42894 | 33830 ft | 399 kts | 250° |
| 2026-05-06 19:22 | 46.77838 | -67.49313 | 33833 ft | 399 kts | 250° |
| 2026-05-06 19:23 | 46.76166 | -67.57030 | 33826 ft | 399 kts | 250° |
| 2026-05-06 19:23 | 46.74490 | -67.64746 | 33828 ft | 399 kts | 250° |
| 2026-05-06 19:24 | 46.72803 | -67.72474 | 33827 ft | 399 kts | 250° |
| 2026-05-06 19:24 | 46.71116 | -67.80175 | 33830 ft | 399 kts | 250° |
| 2026-05-06 19:25 | 46.69424 | -67.87876 | 33834 ft | 399 kts | 250° |
| 2026-05-06 19:25 | 46.67738 | -67.95520 | 33839 ft | 399 kts | 250° |
| 2026-05-06 19:26 | 46.66034 | -68.03220 | 33843 ft | 399 kts | 249° |
| 2026-05-06 19:26 | 46.64328 | -68.10897 | 33841 ft | 398 kts | 249° |
| 2026-05-06 19:27 | 46.62619 | -68.18562 | 33842 ft | 398 kts | 249° |
| 2026-05-06 19:27 | 46.60903 | -68.26225 | 33841 ft | 399 kts | 249° |
| 2026-05-06 19:28 | 46.59179 | -68.33896 | 33835 ft | 399 kts | 249° |
| 2026-05-06 19:28 | 46.57453 | -68.41554 | 33829 ft | 398 kts | 249° |
| 2026-05-06 19:29 | 46.55724 | -68.49197 | 33830 ft | 398 kts | 249° |
| 2026-05-06 19:29 | 46.53990 | -68.56833 | 33831 ft | 398 kts | 249° |
| 2026-05-06 19:30 | 46.52249 | -68.64466 | 33832 ft | 398 kts | 249° |
| 2026-05-06 19:30 | 46.50504 | -68.72095 | 33823 ft | 397 kts | 249° |
| 2026-05-06 19:31 | 46.48760 | -68.79696 | 33822 ft | 397 kts | 249° |
| 2026-05-06 19:31 | 46.46139 | -68.91064 | 33826 ft | 397 kts | 248° |
| 2026-05-06 19:32 | 46.44384 | -68.98648 | 33822 ft | 396 kts | 248° |
| 2026-05-06 19:32 | 46.42622 | -69.06229 | 33819 ft | 397 kts | 248° |
| 2026-05-06 19:33 | 46.40855 | -69.13805 | 33814 ft | 397 kts | 248° |
| 2026-05-06 19:33 | 46.39083 | -69.21375 | 33814 ft | 397 kts | 248° |
| 2026-05-06 19:34 | 46.37304 | -69.28954 | 33814 ft | 397 kts | 248° |
| 2026-05-06 19:34 | 46.35521 | -69.36517 | 33814 ft | 397 kts | 248° |
| 2026-05-06 19:35 | 46.33733 | -69.44084 | 33815 ft | 398 kts | 248° |
| 2026-05-06 19:35 | 46.31938 | -69.51650 | 33813 ft | 398 kts | 248° |
| 2026-05-06 19:36 | 46.30134 | -69.59228 | 33809 ft | 398 kts | 248° |
| 2026-05-06 19:36 | 46.28325 | -69.66807 | 33804 ft | 399 kts | 247° |
| 2026-05-06 19:37 | 46.26517 | -69.74344 | 33805 ft | 399 kts | 247° |
| 2026-05-06 19:37 | 46.24694 | -69.81923 | 33805 ft | 399 kts | 247° |
| 2026-05-06 19:38 | 46.22865 | -69.89504 | 33804 ft | 400 kts | 247° |
| 2026-05-06 19:38 | 46.21029 | -69.97084 | 33804 ft | 400 kts | 247° |
| 2026-05-06 19:39 | 46.19190 | -70.04654 | 33804 ft | 400 kts | 247° |
| 2026-05-06 19:39 | 46.17344 | -70.12224 | 33804 ft | 400 kts | 247° |
| 2026-05-06 19:40 | 46.15493 | -70.19793 | 33803 ft | 399 kts | 247° |
| 2026-05-06 19:40 | 46.13654 | -70.27291 | 33803 ft | 399 kts | 247° |
| 2026-05-06 19:41 | 46.11797 | -70.34837 | 33805 ft | 399 kts | 247° |
| 2026-05-06 19:41 | 46.09933 | -70.42377 | 33813 ft | 399 kts | 246° |
| 2026-05-06 19:42 | 46.08068 | -70.49898 | 33813 ft | 398 kts | 246° |
| 2026-05-06 19:42 | 46.06204 | -70.57392 | 33813 ft | 397 kts | 246° |
| 2026-05-06 19:43 | 46.04334 | -70.64885 | 33814 ft | 397 kts | 246° |
| 2026-05-06 19:43 | 46.02463 | -70.72355 | 33821 ft | 396 kts | 246° |
| 2026-05-06 19:44 | 46.00590 | -70.79813 | 33822 ft | 396 kts | 246° |
| 2026-05-06 19:44 | 45.99124 | -70.87476 | 33823 ft | 403 kts | 258° |
| 2026-05-06 19:45 | 45.98846 | -70.95558 | 33823 ft | 409 kts | 262° |
| 2026-05-06 19:45 | 45.98696 | -71.03754 | 33822 ft | 409 kts | 262° |
| 2026-05-06 19:46 | 45.98615 | -71.07838 | 33434 ft | 407 kts | 262° |
| 2026-05-06 19:46 | 45.98530 | -71.11922 | 32597 ft | 410 kts | 262° |
| 2026-05-06 19:46 | 45.98440 | -71.16018 | 31897 ft | 409 kts | 262° |
| 2026-05-06 19:46 | 45.98349 | -71.20105 | 31189 ft | 408 kts | 262° |
| 2026-05-06 19:47 | 45.98256 | -71.24179 | 30363 ft | 409 kts | 262° |
| 2026-05-06 19:47 | 45.98159 | -71.28282 | 29523 ft | 411 kts | 262° |
| 2026-05-06 19:47 | 45.98064 | -71.32370 | 28896 ft | 407 kts | 262° |
| 2026-05-06 19:47 | 45.97969 | -71.36419 | 28284 ft | 403 kts | 262° |
| 2026-05-06 19:48 | 45.97874 | -71.40425 | 27651 ft | 399 kts | 262° |
| 2026-05-06 19:48 | 45.97776 | -71.44392 | 26996 ft | 396 kts | 262° |
| 2026-05-06 19:48 | 45.97679 | -71.48271 | 26503 ft | 390 kts | 262° |
| 2026-05-06 19:48 | 45.97585 | -71.52106 | 26246 ft | 378 kts | 262° |